<?xml version="1.0" encoding="UTF-8" standalone="no" ?>
<gpx xmlns="http://www.topografix.com/GPX/1/1" xmlns:xsi="http://www.w3.org/2001/XMLSchema-instance" xsi:schemaLocation="http://www.topografix.com/GPX/1/1 http://www.topografix.com/GPX/1/1/gpx.xsd" version="1.1" creator="VisuGPX - https://www.visugpx.com">
  <metadata>
    <name>Les passerelles du Drac</name>
    <desc><![CDATA[Boucle passant par les 2 passerelles et le pont de Brion sans bateau]]></desc>
  </metadata>
  <trk>
    <name><![CDATA[2019-08-08 07:19]]></name>
    <desc><![CDATA[<p>Heure de départ: 07:19 8 août 2019<br/>Heure d'arrivée: 11:52 8 août 2019<br/>Distance: 15,3 km (04:32)<br/>Temps déplacement: 03:45<br/>Vitesse moyenne: 3,36 km/h<br/>Vitesse moyenne mouv.: 4,06 km/h<br/>Vitesse Max.: 7,94 km/h<br/>Altitude minimale: 497 m<br/>Altitude maximale: 739 m<br/>Vitesse de montée: 324,8 m/h<br/>Vitesse de descente: -402,5 m/h<br/>Gain d'altitude: 804 m<br/>Perte d'altitude: -805 m<br/>Temps de montée: 02:28<br/>Temps de descente: 02:00<br/></p><hr align="center" width="480" style="height: 2px; width: 517px"/>]]></desc>
    <trkseg>
      <trkpt lat="44.87275" lon="5.70063">
        <ele>562.06</ele>
        <time>2019-08-08T05:19:36.000Z</time>
      </trkpt>
      <trkpt lat="44.87293" lon="5.70058">
        <ele>560.15</ele>
        <time>2019-08-08T05:20:13.000Z</time>
      </trkpt>
      <trkpt lat="44.87311" lon="5.7005">
        <ele>562.74</ele>
        <time>2019-08-08T05:20:29.000Z</time>
      </trkpt>
      <trkpt lat="44.87328" lon="5.70054">
        <ele>558.37</ele>
        <time>2019-08-08T05:20:42.000Z</time>
      </trkpt>
      <trkpt lat="44.87345" lon="5.70044">
        <ele>559.05</ele>
        <time>2019-08-08T05:20:58.000Z</time>
      </trkpt>
      <trkpt lat="44.87326" lon="5.7004">
        <ele>557.97</ele>
        <time>2019-08-08T05:21:37.000Z</time>
      </trkpt>
      <trkpt lat="44.87307" lon="5.70041">
        <ele>555.45</ele>
        <time>2019-08-08T05:21:51.000Z</time>
      </trkpt>
      <trkpt lat="44.87288" lon="5.70042">
        <ele>557.39</ele>
        <time>2019-08-08T05:22:08.000Z</time>
      </trkpt>
      <trkpt lat="44.8727" lon="5.70038">
        <ele>553.36</ele>
        <time>2019-08-08T05:22:19.000Z</time>
      </trkpt>
      <trkpt lat="44.87252" lon="5.70044">
        <ele>549.93</ele>
        <time>2019-08-08T05:22:34.000Z</time>
      </trkpt>
      <trkpt lat="44.87232" lon="5.70044">
        <ele>545.66</ele>
        <time>2019-08-08T05:22:50.000Z</time>
      </trkpt>
      <trkpt lat="44.87213" lon="5.70046">
        <ele>548.37</ele>
        <time>2019-08-08T05:23:03.000Z</time>
      </trkpt>
      <trkpt lat="44.87204" lon="5.7007">
        <ele>547.64</ele>
        <time>2019-08-08T05:23:21.000Z</time>
      </trkpt>
      <trkpt lat="44.87216" lon="5.70089">
        <ele>552.96</ele>
        <time>2019-08-08T05:23:36.000Z</time>
      </trkpt>
      <trkpt lat="44.87227" lon="5.70111">
        <ele>555.13</ele>
        <time>2019-08-08T05:23:47.000Z</time>
      </trkpt>
      <trkpt lat="44.87234" lon="5.70136">
        <ele>551.42</ele>
        <time>2019-08-08T05:24:02.000Z</time>
      </trkpt>
      <trkpt lat="44.87246" lon="5.70158">
        <ele>550.12</ele>
        <time>2019-08-08T05:24:17.000Z</time>
      </trkpt>
      <trkpt lat="44.87246" lon="5.70184">
        <ele>548.14</ele>
        <time>2019-08-08T05:24:30.000Z</time>
      </trkpt>
      <trkpt lat="44.87246" lon="5.7021">
        <ele>548.92</ele>
        <time>2019-08-08T05:24:56.000Z</time>
      </trkpt>
      <trkpt lat="44.87246" lon="5.70236">
        <ele>551.23</ele>
        <time>2019-08-08T05:25:09.000Z</time>
      </trkpt>
      <trkpt lat="44.87252" lon="5.70261">
        <ele>552.08</ele>
        <time>2019-08-08T05:25:23.000Z</time>
      </trkpt>
      <trkpt lat="44.87261" lon="5.70283">
        <ele>549.23</ele>
        <time>2019-08-08T05:25:37.000Z</time>
      </trkpt>
      <trkpt lat="44.87273" lon="5.70304">
        <ele>554.64</ele>
        <time>2019-08-08T05:25:51.000Z</time>
      </trkpt>
      <trkpt lat="44.87287" lon="5.70324">
        <ele>557.31</ele>
        <time>2019-08-08T05:26:05.000Z</time>
      </trkpt>
      <trkpt lat="44.87294" lon="5.70348">
        <ele>554.78</ele>
        <time>2019-08-08T05:26:18.000Z</time>
      </trkpt>
      <trkpt lat="44.873" lon="5.70375">
        <ele>557.16</ele>
        <time>2019-08-08T05:26:32.000Z</time>
      </trkpt>
      <trkpt lat="44.87313" lon="5.70394">
        <ele>557.77</ele>
        <time>2019-08-08T05:26:46.000Z</time>
      </trkpt>
      <trkpt lat="44.87323" lon="5.70416">
        <ele>559.19</ele>
        <time>2019-08-08T05:27:00.000Z</time>
      </trkpt>
      <trkpt lat="44.87304" lon="5.70415">
        <ele>552.33</ele>
        <time>2019-08-08T05:27:14.000Z</time>
      </trkpt>
      <trkpt lat="44.87287" lon="5.70422">
        <ele>553.29</ele>
        <time>2019-08-08T05:27:30.000Z</time>
      </trkpt>
      <trkpt lat="44.87268" lon="5.70421">
        <ele>546.94</ele>
        <time>2019-08-08T05:27:44.000Z</time>
      </trkpt>
      <trkpt lat="44.8725" lon="5.70429">
        <ele>551.11</ele>
        <time>2019-08-08T05:27:56.000Z</time>
      </trkpt>
      <trkpt lat="44.87235" lon="5.70443">
        <ele>544.08</ele>
        <time>2019-08-08T05:28:10.000Z</time>
      </trkpt>
      <trkpt lat="44.87218" lon="5.70456">
        <ele>542.76</ele>
        <time>2019-08-08T05:28:24.000Z</time>
      </trkpt>
      <trkpt lat="44.87221" lon="5.70483">
        <ele>542.02</ele>
        <time>2019-08-08T05:28:34.000Z</time>
      </trkpt>
      <trkpt lat="44.87234" lon="5.70503">
        <ele>541.15</ele>
        <time>2019-08-08T05:28:45.000Z</time>
      </trkpt>
      <trkpt lat="44.87228" lon="5.70529">
        <ele>543.85</ele>
        <time>2019-08-08T05:29:01.000Z</time>
      </trkpt>
      <trkpt lat="44.87217" lon="5.70551">
        <ele>544.11</ele>
        <time>2019-08-08T05:29:13.000Z</time>
      </trkpt>
      <trkpt lat="44.87208" lon="5.70574">
        <ele>539.85</ele>
        <time>2019-08-08T05:29:27.000Z</time>
      </trkpt>
      <trkpt lat="44.87199" lon="5.70597">
        <ele>542.53</ele>
        <time>2019-08-08T05:29:40.000Z</time>
      </trkpt>
      <trkpt lat="44.8719" lon="5.70621">
        <ele>543.15</ele>
        <time>2019-08-08T05:29:53.000Z</time>
      </trkpt>
      <trkpt lat="44.87177" lon="5.70641">
        <ele>542.86</ele>
        <time>2019-08-08T05:30:08.000Z</time>
      </trkpt>
      <trkpt lat="44.87164" lon="5.7066">
        <ele>532.73</ele>
        <time>2019-08-08T05:30:22.000Z</time>
      </trkpt>
      <trkpt lat="44.87148" lon="5.70672">
        <ele>530.74</ele>
        <time>2019-08-08T05:30:35.000Z</time>
      </trkpt>
      <trkpt lat="44.87138" lon="5.70693">
        <ele>530.29</ele>
        <time>2019-08-08T05:30:46.000Z</time>
      </trkpt>
      <trkpt lat="44.87148" lon="5.70715">
        <ele>527.3</ele>
        <time>2019-08-08T05:31:01.000Z</time>
      </trkpt>
      <trkpt lat="44.87164" lon="5.7073">
        <ele>527.31</ele>
        <time>2019-08-08T05:31:13.000Z</time>
      </trkpt>
      <trkpt lat="44.87173" lon="5.70752">
        <ele>524.08</ele>
        <time>2019-08-08T05:31:27.000Z</time>
      </trkpt>
      <trkpt lat="44.87171" lon="5.70779">
        <ele>524.92</ele>
        <time>2019-08-08T05:31:41.000Z</time>
      </trkpt>
      <trkpt lat="44.87155" lon="5.70791">
        <ele>524.72</ele>
        <time>2019-08-08T05:32:30.000Z</time>
      </trkpt>
      <trkpt lat="44.87136" lon="5.70794">
        <ele>522.57</ele>
        <time>2019-08-08T05:32:46.000Z</time>
      </trkpt>
      <trkpt lat="44.87119" lon="5.70802">
        <ele>526.04</ele>
        <time>2019-08-08T05:33:00.000Z</time>
      </trkpt>
      <trkpt lat="44.87111" lon="5.70826">
        <ele>526.06</ele>
        <time>2019-08-08T05:33:13.000Z</time>
      </trkpt>
      <trkpt lat="44.87104" lon="5.70851">
        <ele>523.75</ele>
        <time>2019-08-08T05:33:29.000Z</time>
      </trkpt>
      <trkpt lat="44.87085" lon="5.70848">
        <ele>526.26</ele>
        <time>2019-08-08T05:33:46.000Z</time>
      </trkpt>
      <trkpt lat="44.87067" lon="5.70839">
        <ele>515.84</ele>
        <time>2019-08-08T05:34:03.000Z</time>
      </trkpt>
      <trkpt lat="44.87051" lon="5.70827">
        <ele>519.79</ele>
        <time>2019-08-08T05:34:14.000Z</time>
      </trkpt>
      <trkpt lat="44.87034" lon="5.70837">
        <ele>529.23</ele>
        <time>2019-08-08T05:34:30.000Z</time>
      </trkpt>
      <trkpt lat="44.87034" lon="5.70864">
        <ele>528.03</ele>
        <time>2019-08-08T05:36:06.000Z</time>
      </trkpt>
      <trkpt lat="44.8703" lon="5.70889">
        <ele>530.29</ele>
        <time>2019-08-08T05:36:20.000Z</time>
      </trkpt>
      <trkpt lat="44.87016" lon="5.70907">
        <ele>530.47</ele>
        <time>2019-08-08T05:36:35.000Z</time>
      </trkpt>
      <trkpt lat="44.87005" lon="5.70927">
        <ele>528.48</ele>
        <time>2019-08-08T05:36:52.000Z</time>
      </trkpt>
      <trkpt lat="44.86991" lon="5.70943">
        <ele>541.07</ele>
        <time>2019-08-08T05:37:10.000Z</time>
      </trkpt>
      <trkpt lat="44.86973" lon="5.70938">
        <ele>536.02</ele>
        <time>2019-08-08T05:37:34.000Z</time>
      </trkpt>
      <trkpt lat="44.86956" lon="5.70933">
        <ele>534.12</ele>
        <time>2019-08-08T05:38:36.000Z</time>
      </trkpt>
      <trkpt lat="44.86944" lon="5.70913">
        <ele>533.65</ele>
        <time>2019-08-08T05:38:56.000Z</time>
      </trkpt>
      <trkpt lat="44.86927" lon="5.70904">
        <ele>533.54</ele>
        <time>2019-08-08T05:40:08.000Z</time>
      </trkpt>
      <trkpt lat="44.86909" lon="5.70899">
        <ele>544.4</ele>
        <time>2019-08-08T05:40:26.000Z</time>
      </trkpt>
      <trkpt lat="44.86893" lon="5.70887">
        <ele>545.02</ele>
        <time>2019-08-08T05:40:46.000Z</time>
      </trkpt>
      <trkpt lat="44.86881" lon="5.70868">
        <ele>541.37</ele>
        <time>2019-08-08T05:40:59.000Z</time>
      </trkpt>
      <trkpt lat="44.86868" lon="5.7085">
        <ele>541.17</ele>
        <time>2019-08-08T05:41:16.000Z</time>
      </trkpt>
      <trkpt lat="44.86852" lon="5.70835">
        <ele>530.03</ele>
        <time>2019-08-08T05:41:26.000Z</time>
      </trkpt>
      <trkpt lat="44.86835" lon="5.70825">
        <ele>530.63</ele>
        <time>2019-08-08T05:41:52.000Z</time>
      </trkpt>
      <trkpt lat="44.86818" lon="5.70811">
        <ele>537.13</ele>
        <time>2019-08-08T05:42:12.000Z</time>
      </trkpt>
      <trkpt lat="44.86803" lon="5.70797">
        <ele>534.76</ele>
        <time>2019-08-08T05:42:31.000Z</time>
      </trkpt>
      <trkpt lat="44.86793" lon="5.70775">
        <ele>537.08</ele>
        <time>2019-08-08T05:43:33.000Z</time>
      </trkpt>
      <trkpt lat="44.86795" lon="5.70748">
        <ele>534.74</ele>
        <time>2019-08-08T05:44:06.000Z</time>
      </trkpt>
      <trkpt lat="44.86788" lon="5.70725">
        <ele>536.68</ele>
        <time>2019-08-08T05:44:23.000Z</time>
      </trkpt>
      <trkpt lat="44.86796" lon="5.70701">
        <ele>527.14</ele>
        <time>2019-08-08T05:44:33.000Z</time>
      </trkpt>
      <trkpt lat="44.868" lon="5.70675">
        <ele>528.16</ele>
        <time>2019-08-08T05:45:02.000Z</time>
      </trkpt>
      <trkpt lat="44.8681" lon="5.70653">
        <ele>522.54</ele>
        <time>2019-08-08T05:45:18.000Z</time>
      </trkpt>
      <trkpt lat="44.86818" lon="5.70629">
        <ele>523.39</ele>
        <time>2019-08-08T05:45:34.000Z</time>
      </trkpt>
      <trkpt lat="44.86829" lon="5.70607">
        <ele>518.87</ele>
        <time>2019-08-08T05:45:47.000Z</time>
      </trkpt>
      <trkpt lat="44.8684" lon="5.70586">
        <ele>517.36</ele>
        <time>2019-08-08T05:46:06.000Z</time>
      </trkpt>
      <trkpt lat="44.86853" lon="5.70567">
        <ele>513.25</ele>
        <time>2019-08-08T05:46:43.000Z</time>
      </trkpt>
      <trkpt lat="44.86871" lon="5.7056">
        <ele>510.91</ele>
        <time>2019-08-08T05:47:01.000Z</time>
      </trkpt>
      <trkpt lat="44.8687" lon="5.70533">
        <ele>508.77</ele>
        <time>2019-08-08T05:47:15.000Z</time>
      </trkpt>
      <trkpt lat="44.86855" lon="5.70516">
        <ele>510.09</ele>
        <time>2019-08-08T05:47:30.000Z</time>
      </trkpt>
      <trkpt lat="44.86847" lon="5.70492">
        <ele>509.55</ele>
        <time>2019-08-08T05:47:54.000Z</time>
      </trkpt>
      <trkpt lat="44.86848" lon="5.70467">
        <ele>511.2</ele>
        <time>2019-08-08T05:48:11.000Z</time>
      </trkpt>
      <trkpt lat="44.86844" lon="5.70441">
        <ele>524.85</ele>
        <time>2019-08-08T05:48:37.000Z</time>
      </trkpt>
      <trkpt lat="44.86839" lon="5.70416">
        <ele>523.32</ele>
        <time>2019-08-08T05:48:52.000Z</time>
      </trkpt>
      <trkpt lat="44.86838" lon="5.7039">
        <ele>518.26</ele>
        <time>2019-08-08T05:49:07.000Z</time>
      </trkpt>
      <trkpt lat="44.86832" lon="5.70365">
        <ele>523.38</ele>
        <time>2019-08-08T05:49:26.000Z</time>
      </trkpt>
      <trkpt lat="44.86822" lon="5.70343">
        <ele>527.43</ele>
        <time>2019-08-08T05:49:48.000Z</time>
      </trkpt>
      <trkpt lat="44.86807" lon="5.70329">
        <ele>536.5</ele>
        <time>2019-08-08T05:50:14.000Z</time>
      </trkpt>
      <trkpt lat="44.8679" lon="5.7032">
        <ele>535.92</ele>
        <time>2019-08-08T05:50:31.000Z</time>
      </trkpt>
      <trkpt lat="44.8678" lon="5.70298">
        <ele>538.37</ele>
        <time>2019-08-08T05:50:46.000Z</time>
      </trkpt>
      <trkpt lat="44.86778" lon="5.70272">
        <ele>538.03</ele>
        <time>2019-08-08T05:51:00.000Z</time>
      </trkpt>
      <trkpt lat="44.86772" lon="5.70247">
        <ele>543.8</ele>
        <time>2019-08-08T05:51:28.000Z</time>
      </trkpt>
      <trkpt lat="44.86754" lon="5.70239">
        <ele>549.61</ele>
        <time>2019-08-08T05:51:45.000Z</time>
      </trkpt>
      <trkpt lat="44.86746" lon="5.70214">
        <ele>555.52</ele>
        <time>2019-08-08T05:52:09.000Z</time>
      </trkpt>
      <trkpt lat="44.86742" lon="5.70188">
        <ele>557.96</ele>
        <time>2019-08-08T05:52:28.000Z</time>
      </trkpt>
      <trkpt lat="44.86734" lon="5.70165">
        <ele>559.15</ele>
        <time>2019-08-08T05:52:47.000Z</time>
      </trkpt>
      <trkpt lat="44.86729" lon="5.7014">
        <ele>560.04</ele>
        <time>2019-08-08T05:53:03.000Z</time>
      </trkpt>
      <trkpt lat="44.86742" lon="5.70122">
        <ele>567.44</ele>
        <time>2019-08-08T05:53:20.000Z</time>
      </trkpt>
      <trkpt lat="44.86728" lon="5.70103">
        <ele>568.99</ele>
        <time>2019-08-08T05:53:32.000Z</time>
      </trkpt>
      <trkpt lat="44.86726" lon="5.70077">
        <ele>571.54</ele>
        <time>2019-08-08T05:53:51.000Z</time>
      </trkpt>
      <trkpt lat="44.86726" lon="5.70052">
        <ele>575.74</ele>
        <time>2019-08-08T05:54:12.000Z</time>
      </trkpt>
      <trkpt lat="44.86725" lon="5.70025">
        <ele>577.96</ele>
        <time>2019-08-08T05:54:39.000Z</time>
      </trkpt>
      <trkpt lat="44.86713" lon="5.70006">
        <ele>575.58</ele>
        <time>2019-08-08T05:55:06.000Z</time>
      </trkpt>
      <trkpt lat="44.86698" lon="5.7002">
        <ele>583.19</ele>
        <time>2019-08-08T05:55:57.000Z</time>
      </trkpt>
      <trkpt lat="44.86681" lon="5.7003">
        <ele>586.77</ele>
        <time>2019-08-08T05:56:18.000Z</time>
      </trkpt>
      <trkpt lat="44.86661" lon="5.70028">
        <ele>594.42</ele>
        <time>2019-08-08T05:56:45.000Z</time>
      </trkpt>
      <trkpt lat="44.86651" lon="5.70007">
        <ele>600.98</ele>
        <time>2019-08-08T05:57:09.000Z</time>
      </trkpt>
      <trkpt lat="44.86652" lon="5.69981">
        <ele>598.05</ele>
        <time>2019-08-08T05:57:33.000Z</time>
      </trkpt>
      <trkpt lat="44.86644" lon="5.69957">
        <ele>598.98</ele>
        <time>2019-08-08T05:57:50.000Z</time>
      </trkpt>
      <trkpt lat="44.86631" lon="5.69939">
        <ele>600.87</ele>
        <time>2019-08-08T05:58:04.000Z</time>
      </trkpt>
      <trkpt lat="44.86622" lon="5.69915">
        <ele>592.39</ele>
        <time>2019-08-08T05:58:16.000Z</time>
      </trkpt>
      <trkpt lat="44.86607" lon="5.69902">
        <ele>589.05</ele>
        <time>2019-08-08T05:58:33.000Z</time>
      </trkpt>
      <trkpt lat="44.86595" lon="5.69882">
        <ele>593.11</ele>
        <time>2019-08-08T05:58:56.000Z</time>
      </trkpt>
      <trkpt lat="44.86578" lon="5.69872">
        <ele>596.71</ele>
        <time>2019-08-08T05:59:10.000Z</time>
      </trkpt>
      <trkpt lat="44.86565" lon="5.69851">
        <ele>600.74</ele>
        <time>2019-08-08T05:59:29.000Z</time>
      </trkpt>
      <trkpt lat="44.86562" lon="5.69825">
        <ele>597.79</ele>
        <time>2019-08-08T05:59:47.000Z</time>
      </trkpt>
      <trkpt lat="44.86544" lon="5.69817">
        <ele>597.46</ele>
        <time>2019-08-08T06:00:10.000Z</time>
      </trkpt>
      <trkpt lat="44.86537" lon="5.69792">
        <ele>603.7</ele>
        <time>2019-08-08T06:00:33.000Z</time>
      </trkpt>
      <trkpt lat="44.86533" lon="5.69766">
        <ele>603.02</ele>
        <time>2019-08-08T06:01:06.000Z</time>
      </trkpt>
      <trkpt lat="44.86531" lon="5.6974">
        <ele>608.74</ele>
        <time>2019-08-08T06:01:26.000Z</time>
      </trkpt>
      <trkpt lat="44.8652" lon="5.69718">
        <ele>611.01</ele>
        <time>2019-08-08T06:01:44.000Z</time>
      </trkpt>
      <trkpt lat="44.86535" lon="5.69702">
        <ele>618.75</ele>
        <time>2019-08-08T06:01:58.000Z</time>
      </trkpt>
      <trkpt lat="44.86553" lon="5.69698">
        <ele>614.68</ele>
        <time>2019-08-08T06:02:15.000Z</time>
      </trkpt>
      <trkpt lat="44.8657" lon="5.69689">
        <ele>611.08</ele>
        <time>2019-08-08T06:02:31.000Z</time>
      </trkpt>
      <trkpt lat="44.86585" lon="5.69674">
        <ele>609.35</ele>
        <time>2019-08-08T06:02:48.000Z</time>
      </trkpt>
      <trkpt lat="44.86603" lon="5.69665">
        <ele>599.05</ele>
        <time>2019-08-08T06:03:04.000Z</time>
      </trkpt>
      <trkpt lat="44.86617" lon="5.69649">
        <ele>600.96</ele>
        <time>2019-08-08T06:03:41.000Z</time>
      </trkpt>
      <trkpt lat="44.86633" lon="5.69638">
        <ele>612.05</ele>
        <time>2019-08-08T06:04:30.000Z</time>
      </trkpt>
      <trkpt lat="44.86628" lon="5.69612">
        <ele>617.69</ele>
        <time>2019-08-08T06:04:56.000Z</time>
      </trkpt>
      <trkpt lat="44.86612" lon="5.69598">
        <ele>617.04</ele>
        <time>2019-08-08T06:05:09.000Z</time>
      </trkpt>
      <trkpt lat="44.86615" lon="5.69572">
        <ele>616.27</ele>
        <time>2019-08-08T06:05:27.000Z</time>
      </trkpt>
      <trkpt lat="44.86623" lon="5.69549">
        <ele>618.53</ele>
        <time>2019-08-08T06:05:42.000Z</time>
      </trkpt>
      <trkpt lat="44.86624" lon="5.69521">
        <ele>615.11</ele>
        <time>2019-08-08T06:06:01.000Z</time>
      </trkpt>
      <trkpt lat="44.86629" lon="5.69496">
        <ele>621.44</ele>
        <time>2019-08-08T06:06:12.000Z</time>
      </trkpt>
      <trkpt lat="44.86634" lon="5.69472">
        <ele>622.05</ele>
        <time>2019-08-08T06:06:28.000Z</time>
      </trkpt>
      <trkpt lat="44.86619" lon="5.69485">
        <ele>629.98</ele>
        <time>2019-08-08T06:07:06.000Z</time>
      </trkpt>
      <trkpt lat="44.8661" lon="5.69509">
        <ele>636.93</ele>
        <time>2019-08-08T06:07:21.000Z</time>
      </trkpt>
      <trkpt lat="44.86595" lon="5.69527">
        <ele>639.95</ele>
        <time>2019-08-08T06:07:39.000Z</time>
      </trkpt>
      <trkpt lat="44.86577" lon="5.69532">
        <ele>633.99</ele>
        <time>2019-08-08T06:07:50.000Z</time>
      </trkpt>
      <trkpt lat="44.86559" lon="5.69523">
        <ele>635.55</ele>
        <time>2019-08-08T06:08:04.000Z</time>
      </trkpt>
      <trkpt lat="44.86541" lon="5.69514">
        <ele>632.96</ele>
        <time>2019-08-08T06:08:22.000Z</time>
      </trkpt>
      <trkpt lat="44.86526" lon="5.695">
        <ele>637.57</ele>
        <time>2019-08-08T06:08:39.000Z</time>
      </trkpt>
      <trkpt lat="44.8651" lon="5.69487">
        <ele>639.05</ele>
        <time>2019-08-08T06:08:58.000Z</time>
      </trkpt>
      <trkpt lat="44.86492" lon="5.69475">
        <ele>644.97</ele>
        <time>2019-08-08T06:09:14.000Z</time>
      </trkpt>
      <trkpt lat="44.86479" lon="5.69457">
        <ele>644.46</ele>
        <time>2019-08-08T06:09:32.000Z</time>
      </trkpt>
      <trkpt lat="44.86462" lon="5.69445">
        <ele>649.31</ele>
        <time>2019-08-08T06:09:47.000Z</time>
      </trkpt>
      <trkpt lat="44.86448" lon="5.69427">
        <ele>648.76</ele>
        <time>2019-08-08T06:10:09.000Z</time>
      </trkpt>
      <trkpt lat="44.86431" lon="5.69419">
        <ele>655.02</ele>
        <time>2019-08-08T06:10:24.000Z</time>
      </trkpt>
      <trkpt lat="44.86412" lon="5.69413">
        <ele>657.58</ele>
        <time>2019-08-08T06:10:42.000Z</time>
      </trkpt>
      <trkpt lat="44.86394" lon="5.69412">
        <ele>655.05</ele>
        <time>2019-08-08T06:10:53.000Z</time>
      </trkpt>
      <trkpt lat="44.86375" lon="5.69409">
        <ele>659.33</ele>
        <time>2019-08-08T06:11:15.000Z</time>
      </trkpt>
      <trkpt lat="44.86359" lon="5.69399">
        <ele>673.42</ele>
        <time>2019-08-08T06:11:43.000Z</time>
      </trkpt>
      <trkpt lat="44.86349" lon="5.69377">
        <ele>672.12</ele>
        <time>2019-08-08T06:12:02.000Z</time>
      </trkpt>
      <trkpt lat="44.86348" lon="5.69352">
        <ele>668.37</ele>
        <time>2019-08-08T06:12:18.000Z</time>
      </trkpt>
      <trkpt lat="44.86344" lon="5.69326">
        <ele>668.11</ele>
        <time>2019-08-08T06:12:52.000Z</time>
      </trkpt>
      <trkpt lat="44.8635" lon="5.69301">
        <ele>673.05</ele>
        <time>2019-08-08T06:13:22.000Z</time>
      </trkpt>
      <trkpt lat="44.86359" lon="5.69278">
        <ele>672.72</ele>
        <time>2019-08-08T06:13:36.000Z</time>
      </trkpt>
      <trkpt lat="44.86371" lon="5.69257">
        <ele>673.03</ele>
        <time>2019-08-08T06:13:53.000Z</time>
      </trkpt>
      <trkpt lat="44.86385" lon="5.69239">
        <ele>667.84</ele>
        <time>2019-08-08T06:14:28.000Z</time>
      </trkpt>
      <trkpt lat="44.86401" lon="5.69226">
        <ele>668.29</ele>
        <time>2019-08-08T06:14:44.000Z</time>
      </trkpt>
      <trkpt lat="44.86417" lon="5.69212">
        <ele>662.33</ele>
        <time>2019-08-08T06:14:58.000Z</time>
      </trkpt>
      <trkpt lat="44.86432" lon="5.69196">
        <ele>661.75</ele>
        <time>2019-08-08T06:15:09.000Z</time>
      </trkpt>
      <trkpt lat="44.86447" lon="5.69179">
        <ele>659.6</ele>
        <time>2019-08-08T06:15:21.000Z</time>
      </trkpt>
      <trkpt lat="44.86463" lon="5.69167">
        <ele>657.14</ele>
        <time>2019-08-08T06:15:35.000Z</time>
      </trkpt>
      <trkpt lat="44.8648" lon="5.69153">
        <ele>655.64</ele>
        <time>2019-08-08T06:15:49.000Z</time>
      </trkpt>
      <trkpt lat="44.86496" lon="5.6914">
        <ele>656.32</ele>
        <time>2019-08-08T06:16:05.000Z</time>
      </trkpt>
      <trkpt lat="44.86509" lon="5.69122">
        <ele>656.11</ele>
        <time>2019-08-08T06:16:19.000Z</time>
      </trkpt>
      <trkpt lat="44.86517" lon="5.69098">
        <ele>658.75</ele>
        <time>2019-08-08T06:16:34.000Z</time>
      </trkpt>
      <trkpt lat="44.86526" lon="5.69074">
        <ele>653.44</ele>
        <time>2019-08-08T06:16:44.000Z</time>
      </trkpt>
      <trkpt lat="44.86531" lon="5.69049">
        <ele>655.92</ele>
        <time>2019-08-08T06:17:10.000Z</time>
      </trkpt>
      <trkpt lat="44.86517" lon="5.69034">
        <ele>653.29</ele>
        <time>2019-08-08T06:17:22.000Z</time>
      </trkpt>
      <trkpt lat="44.86497" lon="5.69033">
        <ele>649.43</ele>
        <time>2019-08-08T06:17:34.000Z</time>
      </trkpt>
      <trkpt lat="44.86481" lon="5.69023">
        <ele>644.51</ele>
        <time>2019-08-08T06:17:46.000Z</time>
      </trkpt>
      <trkpt lat="44.8647" lon="5.69002">
        <ele>652.59</ele>
        <time>2019-08-08T06:18:01.000Z</time>
      </trkpt>
      <trkpt lat="44.86452" lon="5.68994">
        <ele>657.98</ele>
        <time>2019-08-08T06:18:19.000Z</time>
      </trkpt>
      <trkpt lat="44.86441" lon="5.68972">
        <ele>661.82</ele>
        <time>2019-08-08T06:18:35.000Z</time>
      </trkpt>
      <trkpt lat="44.86427" lon="5.68955">
        <ele>667.36</ele>
        <time>2019-08-08T06:18:52.000Z</time>
      </trkpt>
      <trkpt lat="44.86413" lon="5.6894">
        <ele>667.48</ele>
        <time>2019-08-08T06:19:10.000Z</time>
      </trkpt>
      <trkpt lat="44.86403" lon="5.68918">
        <ele>671.55</ele>
        <time>2019-08-08T06:19:49.000Z</time>
      </trkpt>
      <trkpt lat="44.86387" lon="5.68904">
        <ele>684.28</ele>
        <time>2019-08-08T06:20:21.000Z</time>
      </trkpt>
      <trkpt lat="44.86369" lon="5.68894">
        <ele>689.14</ele>
        <time>2019-08-08T06:20:51.000Z</time>
      </trkpt>
      <trkpt lat="44.86373" lon="5.68868">
        <ele>694.73</ele>
        <time>2019-08-08T06:21:13.000Z</time>
      </trkpt>
      <trkpt lat="44.86386" lon="5.68851">
        <ele>690.05</ele>
        <time>2019-08-08T06:21:52.000Z</time>
      </trkpt>
      <trkpt lat="44.86401" lon="5.68836">
        <ele>688.06</ele>
        <time>2019-08-08T06:22:11.000Z</time>
      </trkpt>
      <trkpt lat="44.86417" lon="5.68824">
        <ele>699.05</ele>
        <time>2019-08-08T06:22:39.000Z</time>
      </trkpt>
      <trkpt lat="44.86429" lon="5.68802">
        <ele>694.73</ele>
        <time>2019-08-08T06:23:59.000Z</time>
      </trkpt>
      <trkpt lat="44.86445" lon="5.68784">
        <ele>693.41</ele>
        <time>2019-08-08T06:24:15.000Z</time>
      </trkpt>
      <trkpt lat="44.86434" lon="5.68806">
        <ele>696.86</ele>
        <time>2019-08-08T06:24:37.000Z</time>
      </trkpt>
      <trkpt lat="44.86418" lon="5.68821">
        <ele>702.16</ele>
        <time>2019-08-08T06:24:50.000Z</time>
      </trkpt>
      <trkpt lat="44.86401" lon="5.68833">
        <ele>694.31</ele>
        <time>2019-08-08T06:25:01.000Z</time>
      </trkpt>
      <trkpt lat="44.8639" lon="5.68855">
        <ele>685.93</ele>
        <time>2019-08-08T06:25:15.000Z</time>
      </trkpt>
      <trkpt lat="44.86374" lon="5.68869">
        <ele>690.35</ele>
        <time>2019-08-08T06:25:29.000Z</time>
      </trkpt>
      <trkpt lat="44.8636" lon="5.68884">
        <ele>695.6</ele>
        <time>2019-08-08T06:25:42.000Z</time>
      </trkpt>
      <trkpt lat="44.86346" lon="5.68901">
        <ele>699.26</ele>
        <time>2019-08-08T06:25:53.000Z</time>
      </trkpt>
      <trkpt lat="44.86329" lon="5.68916">
        <ele>705.47</ele>
        <time>2019-08-08T06:26:11.000Z</time>
      </trkpt>
      <trkpt lat="44.86311" lon="5.68922">
        <ele>706.79</ele>
        <time>2019-08-08T06:26:25.000Z</time>
      </trkpt>
      <trkpt lat="44.86293" lon="5.68932">
        <ele>700.21</ele>
        <time>2019-08-08T06:26:38.000Z</time>
      </trkpt>
      <trkpt lat="44.86274" lon="5.6893">
        <ele>699.83</ele>
        <time>2019-08-08T06:26:52.000Z</time>
      </trkpt>
      <trkpt lat="44.86255" lon="5.68929">
        <ele>692.37</ele>
        <time>2019-08-08T06:27:05.000Z</time>
      </trkpt>
      <trkpt lat="44.86236" lon="5.68926">
        <ele>692.93</ele>
        <time>2019-08-08T06:27:18.000Z</time>
      </trkpt>
      <trkpt lat="44.8625" lon="5.68909">
        <ele>691.05</ele>
        <time>2019-08-08T06:27:34.000Z</time>
      </trkpt>
      <trkpt lat="44.86246" lon="5.68884">
        <ele>687.56</ele>
        <time>2019-08-08T06:28:02.000Z</time>
      </trkpt>
      <trkpt lat="44.86264" lon="5.68881">
        <ele>686.03</ele>
        <time>2019-08-08T06:28:31.000Z</time>
      </trkpt>
      <trkpt lat="44.8628" lon="5.68868">
        <ele>685.9</ele>
        <time>2019-08-08T06:28:57.000Z</time>
      </trkpt>
      <trkpt lat="44.86297" lon="5.68853">
        <ele>684.86</ele>
        <time>2019-08-08T06:29:14.000Z</time>
      </trkpt>
      <trkpt lat="44.86312" lon="5.68837">
        <ele>679.83</ele>
        <time>2019-08-08T06:29:35.000Z</time>
      </trkpt>
      <trkpt lat="44.86328" lon="5.68825">
        <ele>672.71</ele>
        <time>2019-08-08T06:29:45.000Z</time>
      </trkpt>
      <trkpt lat="44.86342" lon="5.68806">
        <ele>679.25</ele>
        <time>2019-08-08T06:29:58.000Z</time>
      </trkpt>
      <trkpt lat="44.86356" lon="5.68787">
        <ele>679.66</ele>
        <time>2019-08-08T06:30:12.000Z</time>
      </trkpt>
      <trkpt lat="44.86368" lon="5.68768">
        <ele>674.05</ele>
        <time>2019-08-08T06:30:25.000Z</time>
      </trkpt>
      <trkpt lat="44.8638" lon="5.68748">
        <ele>677.07</ele>
        <time>2019-08-08T06:30:51.000Z</time>
      </trkpt>
      <trkpt lat="44.86395" lon="5.68733">
        <ele>677.66</ele>
        <time>2019-08-08T06:31:03.000Z</time>
      </trkpt>
      <trkpt lat="44.86408" lon="5.68713">
        <ele>676.82</ele>
        <time>2019-08-08T06:31:14.000Z</time>
      </trkpt>
      <trkpt lat="44.8642" lon="5.68694">
        <ele>679.75</ele>
        <time>2019-08-08T06:31:37.000Z</time>
      </trkpt>
      <trkpt lat="44.86431" lon="5.68673">
        <ele>669.23</ele>
        <time>2019-08-08T06:31:44.000Z</time>
      </trkpt>
      <trkpt lat="44.86442" lon="5.68652">
        <ele>672.32</ele>
        <time>2019-08-08T06:31:59.000Z</time>
      </trkpt>
      <trkpt lat="44.86441" lon="5.68625">
        <ele>669.77</ele>
        <time>2019-08-08T06:32:18.000Z</time>
      </trkpt>
      <trkpt lat="44.86449" lon="5.68601">
        <ele>665.04</ele>
        <time>2019-08-08T06:32:37.000Z</time>
      </trkpt>
      <trkpt lat="44.86447" lon="5.68573">
        <ele>657.93</ele>
        <time>2019-08-08T06:32:54.000Z</time>
      </trkpt>
      <trkpt lat="44.86442" lon="5.68547">
        <ele>653.79</ele>
        <time>2019-08-08T06:33:08.000Z</time>
      </trkpt>
      <trkpt lat="44.86446" lon="5.6852">
        <ele>654.12</ele>
        <time>2019-08-08T06:33:23.000Z</time>
      </trkpt>
      <trkpt lat="44.86457" lon="5.68498">
        <ele>661.71</ele>
        <time>2019-08-08T06:33:40.000Z</time>
      </trkpt>
      <trkpt lat="44.86464" lon="5.68474">
        <ele>658.46</ele>
        <time>2019-08-08T06:33:51.000Z</time>
      </trkpt>
      <trkpt lat="44.8648" lon="5.68461">
        <ele>660.06</ele>
        <time>2019-08-08T06:34:08.000Z</time>
      </trkpt>
      <trkpt lat="44.86498" lon="5.68451">
        <ele>660.01</ele>
        <time>2019-08-08T06:34:22.000Z</time>
      </trkpt>
      <trkpt lat="44.86509" lon="5.68429">
        <ele>656.36</ele>
        <time>2019-08-08T06:34:35.000Z</time>
      </trkpt>
      <trkpt lat="44.86519" lon="5.68408">
        <ele>658.23</ele>
        <time>2019-08-08T06:34:57.000Z</time>
      </trkpt>
      <trkpt lat="44.86526" lon="5.68383">
        <ele>669.19</ele>
        <time>2019-08-08T06:35:12.000Z</time>
      </trkpt>
      <trkpt lat="44.86543" lon="5.68369">
        <ele>673.1</ele>
        <time>2019-08-08T06:35:28.000Z</time>
      </trkpt>
      <trkpt lat="44.86552" lon="5.68346">
        <ele>673.78</ele>
        <time>2019-08-08T06:35:40.000Z</time>
      </trkpt>
      <trkpt lat="44.86565" lon="5.68328">
        <ele>670.88</ele>
        <time>2019-08-08T06:35:58.000Z</time>
      </trkpt>
      <trkpt lat="44.86581" lon="5.68313">
        <ele>674.75</ele>
        <time>2019-08-08T06:36:13.000Z</time>
      </trkpt>
      <trkpt lat="44.86599" lon="5.68309">
        <ele>675.7</ele>
        <time>2019-08-08T06:36:32.000Z</time>
      </trkpt>
      <trkpt lat="44.86612" lon="5.6829">
        <ele>668.05</ele>
        <time>2019-08-08T06:36:47.000Z</time>
      </trkpt>
      <trkpt lat="44.86628" lon="5.68277">
        <ele>667.12</ele>
        <time>2019-08-08T06:36:56.000Z</time>
      </trkpt>
      <trkpt lat="44.86635" lon="5.68253">
        <ele>668.59</ele>
        <time>2019-08-08T06:37:09.000Z</time>
      </trkpt>
      <trkpt lat="44.86652" lon="5.68243">
        <ele>662.35</ele>
        <time>2019-08-08T06:37:24.000Z</time>
      </trkpt>
      <trkpt lat="44.8667" lon="5.68242">
        <ele>654.03</ele>
        <time>2019-08-08T06:37:40.000Z</time>
      </trkpt>
      <trkpt lat="44.86675" lon="5.68218">
        <ele>642.68</ele>
        <time>2019-08-08T06:38:27.000Z</time>
      </trkpt>
      <trkpt lat="44.86684" lon="5.68194">
        <ele>648.8</ele>
        <time>2019-08-08T06:38:40.000Z</time>
      </trkpt>
      <trkpt lat="44.86688" lon="5.68168">
        <ele>648.69</ele>
        <time>2019-08-08T06:38:54.000Z</time>
      </trkpt>
      <trkpt lat="44.86695" lon="5.68144">
        <ele>643.87</ele>
        <time>2019-08-08T06:39:37.000Z</time>
      </trkpt>
      <trkpt lat="44.86709" lon="5.68127">
        <ele>638.94</ele>
        <time>2019-08-08T06:40:02.000Z</time>
      </trkpt>
      <trkpt lat="44.8672" lon="5.68106">
        <ele>634.47</ele>
        <time>2019-08-08T06:40:15.000Z</time>
      </trkpt>
      <trkpt lat="44.86722" lon="5.68079">
        <ele>634.64</ele>
        <time>2019-08-08T06:40:30.000Z</time>
      </trkpt>
      <trkpt lat="44.86725" lon="5.68054">
        <ele>634.44</ele>
        <time>2019-08-08T06:40:48.000Z</time>
      </trkpt>
      <trkpt lat="44.86736" lon="5.68033">
        <ele>634.66</ele>
        <time>2019-08-08T06:41:03.000Z</time>
      </trkpt>
      <trkpt lat="44.86747" lon="5.6801">
        <ele>626.79</ele>
        <time>2019-08-08T06:41:15.000Z</time>
      </trkpt>
      <trkpt lat="44.86764" lon="5.67995">
        <ele>621.11</ele>
        <time>2019-08-08T06:41:26.000Z</time>
      </trkpt>
      <trkpt lat="44.86748" lon="5.68007">
        <ele>622.74</ele>
        <time>2019-08-08T06:41:52.000Z</time>
      </trkpt>
      <trkpt lat="44.86736" lon="5.68028">
        <ele>624.32</ele>
        <time>2019-08-08T06:42:07.000Z</time>
      </trkpt>
      <trkpt lat="44.86748" lon="5.68009">
        <ele>621.82</ele>
        <time>2019-08-08T06:43:03.000Z</time>
      </trkpt>
      <trkpt lat="44.86762" lon="5.67991">
        <ele>622.48</ele>
        <time>2019-08-08T06:43:17.000Z</time>
      </trkpt>
      <trkpt lat="44.86773" lon="5.67969">
        <ele>619.04</ele>
        <time>2019-08-08T06:43:30.000Z</time>
      </trkpt>
      <trkpt lat="44.86785" lon="5.67947">
        <ele>623.28</ele>
        <time>2019-08-08T06:43:46.000Z</time>
      </trkpt>
      <trkpt lat="44.86796" lon="5.67926">
        <ele>619.12</ele>
        <time>2019-08-08T06:43:58.000Z</time>
      </trkpt>
      <trkpt lat="44.86805" lon="5.67902">
        <ele>623.99</ele>
        <time>2019-08-08T06:44:12.000Z</time>
      </trkpt>
      <trkpt lat="44.86811" lon="5.67876">
        <ele>625.76</ele>
        <time>2019-08-08T06:44:26.000Z</time>
      </trkpt>
      <trkpt lat="44.86829" lon="5.67866">
        <ele>618.91</ele>
        <time>2019-08-08T06:44:34.000Z</time>
      </trkpt>
      <trkpt lat="44.86843" lon="5.67848">
        <ele>616.77</ele>
        <time>2019-08-08T06:44:48.000Z</time>
      </trkpt>
      <trkpt lat="44.86846" lon="5.67823">
        <ele>615.35</ele>
        <time>2019-08-08T06:45:38.000Z</time>
      </trkpt>
      <trkpt lat="44.86852" lon="5.67799">
        <ele>607.31</ele>
        <time>2019-08-08T06:45:55.000Z</time>
      </trkpt>
      <trkpt lat="44.8686" lon="5.67774">
        <ele>600.18</ele>
        <time>2019-08-08T06:46:05.000Z</time>
      </trkpt>
      <trkpt lat="44.86876" lon="5.67756">
        <ele>603.33</ele>
        <time>2019-08-08T06:46:21.000Z</time>
      </trkpt>
      <trkpt lat="44.86886" lon="5.67734">
        <ele>604.22</ele>
        <time>2019-08-08T06:46:32.000Z</time>
      </trkpt>
      <trkpt lat="44.86891" lon="5.67708">
        <ele>603.74</ele>
        <time>2019-08-08T06:46:44.000Z</time>
      </trkpt>
      <trkpt lat="44.86906" lon="5.67693">
        <ele>601.39</ele>
        <time>2019-08-08T06:46:59.000Z</time>
      </trkpt>
      <trkpt lat="44.86915" lon="5.67669">
        <ele>597.07</ele>
        <time>2019-08-08T06:47:11.000Z</time>
      </trkpt>
      <trkpt lat="44.86923" lon="5.67645">
        <ele>597</ele>
        <time>2019-08-08T06:47:23.000Z</time>
      </trkpt>
      <trkpt lat="44.86935" lon="5.67624">
        <ele>596.09</ele>
        <time>2019-08-08T06:47:37.000Z</time>
      </trkpt>
      <trkpt lat="44.86947" lon="5.67602">
        <ele>592.18</ele>
        <time>2019-08-08T06:47:51.000Z</time>
      </trkpt>
      <trkpt lat="44.86954" lon="5.67578">
        <ele>589.44</ele>
        <time>2019-08-08T06:48:02.000Z</time>
      </trkpt>
      <trkpt lat="44.86953" lon="5.67552">
        <ele>592.27</ele>
        <time>2019-08-08T06:48:18.000Z</time>
      </trkpt>
      <trkpt lat="44.86944" lon="5.67531">
        <ele>595.05</ele>
        <time>2019-08-08T06:48:32.000Z</time>
      </trkpt>
      <trkpt lat="44.8696" lon="5.67518">
        <ele>595.74</ele>
        <time>2019-08-08T06:49:02.000Z</time>
      </trkpt>
      <trkpt lat="44.8697" lon="5.67494">
        <ele>592.77</ele>
        <time>2019-08-08T06:49:17.000Z</time>
      </trkpt>
      <trkpt lat="44.86981" lon="5.67473">
        <ele>588.32</ele>
        <time>2019-08-08T06:49:30.000Z</time>
      </trkpt>
      <trkpt lat="44.86991" lon="5.67452">
        <ele>587.44</ele>
        <time>2019-08-08T06:49:43.000Z</time>
      </trkpt>
      <trkpt lat="44.87003" lon="5.6743">
        <ele>581.85</ele>
        <time>2019-08-08T06:49:54.000Z</time>
      </trkpt>
      <trkpt lat="44.87007" lon="5.67405">
        <ele>580.65</ele>
        <time>2019-08-08T06:50:06.000Z</time>
      </trkpt>
      <trkpt lat="44.87023" lon="5.67392">
        <ele>582.11</ele>
        <time>2019-08-08T06:50:22.000Z</time>
      </trkpt>
      <trkpt lat="44.87041" lon="5.67397">
        <ele>583.06</ele>
        <time>2019-08-08T06:51:25.000Z</time>
      </trkpt>
      <trkpt lat="44.87038" lon="5.67423">
        <ele>585.75</ele>
        <time>2019-08-08T06:52:33.000Z</time>
      </trkpt>
      <trkpt lat="44.87026" lon="5.67444">
        <ele>579.15</ele>
        <time>2019-08-08T06:52:47.000Z</time>
      </trkpt>
      <trkpt lat="44.87016" lon="5.67466">
        <ele>578.52</ele>
        <time>2019-08-08T06:53:00.000Z</time>
      </trkpt>
      <trkpt lat="44.87015" lon="5.67492">
        <ele>576.99</ele>
        <time>2019-08-08T06:53:15.000Z</time>
      </trkpt>
      <trkpt lat="44.87023" lon="5.67515">
        <ele>573.44</ele>
        <time>2019-08-08T06:53:31.000Z</time>
      </trkpt>
      <trkpt lat="44.87025" lon="5.67542">
        <ele>562.96</ele>
        <time>2019-08-08T06:53:48.000Z</time>
      </trkpt>
      <trkpt lat="44.87035" lon="5.67563">
        <ele>559.93</ele>
        <time>2019-08-08T06:54:04.000Z</time>
      </trkpt>
      <trkpt lat="44.87028" lon="5.67588">
        <ele>562.49</ele>
        <time>2019-08-08T06:54:20.000Z</time>
      </trkpt>
      <trkpt lat="44.87047" lon="5.67592">
        <ele>560.79</ele>
        <time>2019-08-08T06:54:32.000Z</time>
      </trkpt>
      <trkpt lat="44.87064" lon="5.67603">
        <ele>555.34</ele>
        <time>2019-08-08T06:54:48.000Z</time>
      </trkpt>
      <trkpt lat="44.87077" lon="5.67622">
        <ele>550.43</ele>
        <time>2019-08-08T06:54:58.000Z</time>
      </trkpt>
      <trkpt lat="44.87085" lon="5.67645">
        <ele>553.92</ele>
        <time>2019-08-08T06:56:00.000Z</time>
      </trkpt>
      <trkpt lat="44.87103" lon="5.67651">
        <ele>540.28</ele>
        <time>2019-08-08T06:56:56.000Z</time>
      </trkpt>
      <trkpt lat="44.87121" lon="5.67643">
        <ele>531.68</ele>
        <time>2019-08-08T06:57:58.000Z</time>
      </trkpt>
      <trkpt lat="44.87135" lon="5.67658">
        <ele>536.11</ele>
        <time>2019-08-08T06:59:04.000Z</time>
      </trkpt>
      <trkpt lat="44.87153" lon="5.67658">
        <ele>532.05</ele>
        <time>2019-08-08T06:59:33.000Z</time>
      </trkpt>
      <trkpt lat="44.87169" lon="5.67671">
        <ele>528.05</ele>
        <time>2019-08-08T07:00:20.000Z</time>
      </trkpt>
      <trkpt lat="44.87187" lon="5.67679">
        <ele>522.96</ele>
        <time>2019-08-08T07:01:40.000Z</time>
      </trkpt>
      <trkpt lat="44.87205" lon="5.67688">
        <ele>526.22</ele>
        <time>2019-08-08T07:01:55.000Z</time>
      </trkpt>
      <trkpt lat="44.87223" lon="5.67686">
        <ele>515.13</ele>
        <time>2019-08-08T07:02:10.000Z</time>
      </trkpt>
      <trkpt lat="44.87238" lon="5.67701">
        <ele>524.08</ele>
        <time>2019-08-08T07:03:14.000Z</time>
      </trkpt>
      <trkpt lat="44.87256" lon="5.67704">
        <ele>530.06</ele>
        <time>2019-08-08T07:03:28.000Z</time>
      </trkpt>
      <trkpt lat="44.87273" lon="5.67715">
        <ele>532.77</ele>
        <time>2019-08-08T07:03:51.000Z</time>
      </trkpt>
      <trkpt lat="44.87283" lon="5.67736">
        <ele>543.59</ele>
        <time>2019-08-08T07:05:01.000Z</time>
      </trkpt>
      <trkpt lat="44.87276" lon="5.6776">
        <ele>534.89</ele>
        <time>2019-08-08T07:06:06.000Z</time>
      </trkpt>
      <trkpt lat="44.8729" lon="5.67742">
        <ele>537.72</ele>
        <time>2019-08-08T07:06:30.000Z</time>
      </trkpt>
      <trkpt lat="44.87297" lon="5.67719">
        <ele>543.84</ele>
        <time>2019-08-08T07:09:22.000Z</time>
      </trkpt>
      <trkpt lat="44.8729" lon="5.67696">
        <ele>545.75</ele>
        <time>2019-08-08T07:09:44.000Z</time>
      </trkpt>
      <trkpt lat="44.87283" lon="5.67671">
        <ele>549.35</ele>
        <time>2019-08-08T07:10:02.000Z</time>
      </trkpt>
      <trkpt lat="44.87301" lon="5.67667">
        <ele>557.08</ele>
        <time>2019-08-08T07:11:55.000Z</time>
      </trkpt>
      <trkpt lat="44.87317" lon="5.67654">
        <ele>557.12</ele>
        <time>2019-08-08T07:12:14.000Z</time>
      </trkpt>
      <trkpt lat="44.87306" lon="5.67633">
        <ele>564.05</ele>
        <time>2019-08-08T07:12:40.000Z</time>
      </trkpt>
      <trkpt lat="44.87291" lon="5.67615">
        <ele>558.4</ele>
        <time>2019-08-08T07:12:52.000Z</time>
      </trkpt>
      <trkpt lat="44.87305" lon="5.67633">
        <ele>560.96</ele>
        <time>2019-08-08T07:14:09.000Z</time>
      </trkpt>
      <trkpt lat="44.87318" lon="5.67651">
        <ele>565.05</ele>
        <time>2019-08-08T07:14:24.000Z</time>
      </trkpt>
      <trkpt lat="44.87334" lon="5.67662">
        <ele>569.86</ele>
        <time>2019-08-08T07:14:43.000Z</time>
      </trkpt>
      <trkpt lat="44.8734" lon="5.67638">
        <ele>571.16</ele>
        <time>2019-08-08T07:15:32.000Z</time>
      </trkpt>
      <trkpt lat="44.87327" lon="5.67619">
        <ele>569.34</ele>
        <time>2019-08-08T07:15:50.000Z</time>
      </trkpt>
      <trkpt lat="44.87318" lon="5.67595">
        <ele>574.67</ele>
        <time>2019-08-08T07:16:12.000Z</time>
      </trkpt>
      <trkpt lat="44.87336" lon="5.67593">
        <ele>587.76</ele>
        <time>2019-08-08T07:16:45.000Z</time>
      </trkpt>
      <trkpt lat="44.87354" lon="5.67591">
        <ele>586.48</ele>
        <time>2019-08-08T07:17:08.000Z</time>
      </trkpt>
      <trkpt lat="44.87372" lon="5.67583">
        <ele>592.97</ele>
        <time>2019-08-08T07:17:40.000Z</time>
      </trkpt>
      <trkpt lat="44.87389" lon="5.67574">
        <ele>599.67</ele>
        <time>2019-08-08T07:18:04.000Z</time>
      </trkpt>
      <trkpt lat="44.87408" lon="5.67582">
        <ele>613</ele>
        <time>2019-08-08T07:18:44.000Z</time>
      </trkpt>
      <trkpt lat="44.87425" lon="5.67569">
        <ele>617.07</ele>
        <time>2019-08-08T07:18:58.000Z</time>
      </trkpt>
      <trkpt lat="44.87442" lon="5.67557">
        <ele>614.72</ele>
        <time>2019-08-08T07:19:24.000Z</time>
      </trkpt>
      <trkpt lat="44.87428" lon="5.67539">
        <ele>630.89</ele>
        <time>2019-08-08T07:20:56.000Z</time>
      </trkpt>
      <trkpt lat="44.87419" lon="5.67516">
        <ele>636.85</ele>
        <time>2019-08-08T07:21:39.000Z</time>
      </trkpt>
      <trkpt lat="44.87401" lon="5.67509">
        <ele>640.1</ele>
        <time>2019-08-08T07:22:08.000Z</time>
      </trkpt>
      <trkpt lat="44.87387" lon="5.67492">
        <ele>648.93</ele>
        <time>2019-08-08T07:22:39.000Z</time>
      </trkpt>
      <trkpt lat="44.87377" lon="5.67471">
        <ele>658.54</ele>
        <time>2019-08-08T07:23:19.000Z</time>
      </trkpt>
      <trkpt lat="44.87371" lon="5.67447">
        <ele>666.22</ele>
        <time>2019-08-08T07:23:51.000Z</time>
      </trkpt>
      <trkpt lat="44.87354" lon="5.67433">
        <ele>667.32</ele>
        <time>2019-08-08T07:24:29.000Z</time>
      </trkpt>
      <trkpt lat="44.87339" lon="5.67417">
        <ele>669.67</ele>
        <time>2019-08-08T07:24:51.000Z</time>
      </trkpt>
      <trkpt lat="44.87329" lon="5.67395">
        <ele>674.2</ele>
        <time>2019-08-08T07:25:16.000Z</time>
      </trkpt>
      <trkpt lat="44.8731" lon="5.67392">
        <ele>683.55</ele>
        <time>2019-08-08T07:25:49.000Z</time>
      </trkpt>
      <trkpt lat="44.87294" lon="5.6738">
        <ele>684.2</ele>
        <time>2019-08-08T07:27:09.000Z</time>
      </trkpt>
      <trkpt lat="44.87282" lon="5.67362">
        <ele>686.32</ele>
        <time>2019-08-08T07:28:15.000Z</time>
      </trkpt>
      <trkpt lat="44.87286" lon="5.67336">
        <ele>694.44</ele>
        <time>2019-08-08T07:32:46.000Z</time>
      </trkpt>
      <trkpt lat="44.87292" lon="5.6731">
        <ele>688.87</ele>
        <time>2019-08-08T07:33:04.000Z</time>
      </trkpt>
      <trkpt lat="44.87297" lon="5.67285">
        <ele>689.02</ele>
        <time>2019-08-08T07:33:17.000Z</time>
      </trkpt>
      <trkpt lat="44.87292" lon="5.6726">
        <ele>691.14</ele>
        <time>2019-08-08T07:33:32.000Z</time>
      </trkpt>
      <trkpt lat="44.87279" lon="5.67241">
        <ele>688.78</ele>
        <time>2019-08-08T07:33:46.000Z</time>
      </trkpt>
      <trkpt lat="44.87265" lon="5.67223">
        <ele>686.02</ele>
        <time>2019-08-08T07:34:02.000Z</time>
      </trkpt>
      <trkpt lat="44.8725" lon="5.67208">
        <ele>687.23</ele>
        <time>2019-08-08T07:34:19.000Z</time>
      </trkpt>
      <trkpt lat="44.87262" lon="5.67188">
        <ele>698.9</ele>
        <time>2019-08-08T07:36:09.000Z</time>
      </trkpt>
      <trkpt lat="44.87256" lon="5.67163">
        <ele>695.27</ele>
        <time>2019-08-08T07:36:31.000Z</time>
      </trkpt>
      <trkpt lat="44.87255" lon="5.67137">
        <ele>698.42</ele>
        <time>2019-08-08T07:36:54.000Z</time>
      </trkpt>
      <trkpt lat="44.87254" lon="5.67112">
        <ele>712.05</ele>
        <time>2019-08-08T07:37:32.000Z</time>
      </trkpt>
      <trkpt lat="44.87254" lon="5.67086">
        <ele>714.84</ele>
        <time>2019-08-08T07:37:57.000Z</time>
      </trkpt>
      <trkpt lat="44.87272" lon="5.67095">
        <ele>722.66</ele>
        <time>2019-08-08T07:38:36.000Z</time>
      </trkpt>
      <trkpt lat="44.8729" lon="5.67103">
        <ele>729.84</ele>
        <time>2019-08-08T07:39:02.000Z</time>
      </trkpt>
      <trkpt lat="44.87308" lon="5.67102">
        <ele>728.04</ele>
        <time>2019-08-08T07:39:21.000Z</time>
      </trkpt>
      <trkpt lat="44.87326" lon="5.67101">
        <ele>733.33</ele>
        <time>2019-08-08T07:39:36.000Z</time>
      </trkpt>
      <trkpt lat="44.87345" lon="5.67097">
        <ele>730.19</ele>
        <time>2019-08-08T07:39:53.000Z</time>
      </trkpt>
      <trkpt lat="44.87363" lon="5.67095">
        <ele>735.1</ele>
        <time>2019-08-08T07:40:08.000Z</time>
      </trkpt>
      <trkpt lat="44.87382" lon="5.67094">
        <ele>735.47</ele>
        <time>2019-08-08T07:40:22.000Z</time>
      </trkpt>
      <trkpt lat="44.87401" lon="5.67092">
        <ele>737.97</ele>
        <time>2019-08-08T07:40:41.000Z</time>
      </trkpt>
      <trkpt lat="44.87419" lon="5.67088">
        <ele>739.75</ele>
        <time>2019-08-08T07:40:58.000Z</time>
      </trkpt>
      <trkpt lat="44.87438" lon="5.67083">
        <ele>739.13</ele>
        <time>2019-08-08T07:41:29.000Z</time>
      </trkpt>
      <trkpt lat="44.87455" lon="5.67074">
        <ele>728.35</ele>
        <time>2019-08-08T07:42:15.000Z</time>
      </trkpt>
      <trkpt lat="44.87473" lon="5.67069">
        <ele>728.75</ele>
        <time>2019-08-08T07:42:35.000Z</time>
      </trkpt>
      <trkpt lat="44.87455" lon="5.67062">
        <ele>736.13</ele>
        <time>2019-08-08T07:43:33.000Z</time>
      </trkpt>
      <trkpt lat="44.87438" lon="5.6705">
        <ele>734.06</ele>
        <time>2019-08-08T07:43:51.000Z</time>
      </trkpt>
      <trkpt lat="44.8742" lon="5.67053">
        <ele>731.23</ele>
        <time>2019-08-08T07:44:05.000Z</time>
      </trkpt>
      <trkpt lat="44.87401" lon="5.67048">
        <ele>731.35</ele>
        <time>2019-08-08T07:44:17.000Z</time>
      </trkpt>
      <trkpt lat="44.87383" lon="5.6704">
        <ele>728.18</ele>
        <time>2019-08-08T07:44:33.000Z</time>
      </trkpt>
      <trkpt lat="44.87364" lon="5.67042">
        <ele>724.53</ele>
        <time>2019-08-08T07:44:44.000Z</time>
      </trkpt>
      <trkpt lat="44.87346" lon="5.67038">
        <ele>715.06</ele>
        <time>2019-08-08T07:45:06.000Z</time>
      </trkpt>
      <trkpt lat="44.87328" lon="5.67031">
        <ele>712.06</ele>
        <time>2019-08-08T07:45:26.000Z</time>
      </trkpt>
      <trkpt lat="44.87309" lon="5.6703">
        <ele>707.67</ele>
        <time>2019-08-08T07:45:43.000Z</time>
      </trkpt>
      <trkpt lat="44.8729" lon="5.67031">
        <ele>700.26</ele>
        <time>2019-08-08T07:45:58.000Z</time>
      </trkpt>
      <trkpt lat="44.87272" lon="5.6703">
        <ele>691.05</ele>
        <time>2019-08-08T07:46:23.000Z</time>
      </trkpt>
      <trkpt lat="44.87254" lon="5.6703">
        <ele>684.74</ele>
        <time>2019-08-08T07:46:41.000Z</time>
      </trkpt>
      <trkpt lat="44.87236" lon="5.67027">
        <ele>685.99</ele>
        <time>2019-08-08T07:46:57.000Z</time>
      </trkpt>
      <trkpt lat="44.87217" lon="5.67027">
        <ele>678.89</ele>
        <time>2019-08-08T07:47:12.000Z</time>
      </trkpt>
      <trkpt lat="44.87199" lon="5.67028">
        <ele>680.34</ele>
        <time>2019-08-08T07:47:28.000Z</time>
      </trkpt>
      <trkpt lat="44.87188" lon="5.6705">
        <ele>675.99</ele>
        <time>2019-08-08T07:47:51.000Z</time>
      </trkpt>
      <trkpt lat="44.87193" lon="5.67025">
        <ele>673.57</ele>
        <time>2019-08-08T08:00:15.000Z</time>
      </trkpt>
      <trkpt lat="44.87205" lon="5.67006">
        <ele>669.35</ele>
        <time>2019-08-08T08:00:39.000Z</time>
      </trkpt>
      <trkpt lat="44.87216" lon="5.66985">
        <ele>670.2</ele>
        <time>2019-08-08T08:01:05.000Z</time>
      </trkpt>
      <trkpt lat="44.87199" lon="5.66976">
        <ele>671.34</ele>
        <time>2019-08-08T08:01:28.000Z</time>
      </trkpt>
      <trkpt lat="44.87179" lon="5.66978">
        <ele>666.63</ele>
        <time>2019-08-08T08:01:48.000Z</time>
      </trkpt>
      <trkpt lat="44.87161" lon="5.66975">
        <ele>657.23</ele>
        <time>2019-08-08T08:02:03.000Z</time>
      </trkpt>
      <trkpt lat="44.87142" lon="5.66973">
        <ele>656.83</ele>
        <time>2019-08-08T08:02:22.000Z</time>
      </trkpt>
      <trkpt lat="44.87124" lon="5.66969">
        <ele>648.28</ele>
        <time>2019-08-08T08:02:44.000Z</time>
      </trkpt>
      <trkpt lat="44.87106" lon="5.66966">
        <ele>642.2</ele>
        <time>2019-08-08T08:03:05.000Z</time>
      </trkpt>
      <trkpt lat="44.87087" lon="5.66971">
        <ele>636.82</ele>
        <time>2019-08-08T08:03:23.000Z</time>
      </trkpt>
      <trkpt lat="44.87069" lon="5.66961">
        <ele>633.14</ele>
        <time>2019-08-08T08:03:43.000Z</time>
      </trkpt>
      <trkpt lat="44.87059" lon="5.66939">
        <ele>632.27</ele>
        <time>2019-08-08T08:04:00.000Z</time>
      </trkpt>
      <trkpt lat="44.87041" lon="5.66945">
        <ele>630.26</ele>
        <time>2019-08-08T08:04:18.000Z</time>
      </trkpt>
      <trkpt lat="44.87025" lon="5.66956">
        <ele>623.7</ele>
        <time>2019-08-08T08:04:43.000Z</time>
      </trkpt>
      <trkpt lat="44.87008" lon="5.66943">
        <ele>623.32</ele>
        <time>2019-08-08T08:05:02.000Z</time>
      </trkpt>
      <trkpt lat="44.87002" lon="5.66918">
        <ele>611.37</ele>
        <time>2019-08-08T08:05:34.000Z</time>
      </trkpt>
      <trkpt lat="44.86995" lon="5.66895">
        <ele>600.53</ele>
        <time>2019-08-08T08:05:59.000Z</time>
      </trkpt>
      <trkpt lat="44.86986" lon="5.66872">
        <ele>599.84</ele>
        <time>2019-08-08T08:06:22.000Z</time>
      </trkpt>
      <trkpt lat="44.86969" lon="5.66862">
        <ele>587.9</ele>
        <time>2019-08-08T08:06:52.000Z</time>
      </trkpt>
      <trkpt lat="44.86961" lon="5.66839">
        <ele>593.14</ele>
        <time>2019-08-08T08:07:05.000Z</time>
      </trkpt>
      <trkpt lat="44.86943" lon="5.66838">
        <ele>576.86</ele>
        <time>2019-08-08T08:07:31.000Z</time>
      </trkpt>
      <trkpt lat="44.86928" lon="5.66853">
        <ele>575.17</ele>
        <time>2019-08-08T08:08:22.000Z</time>
      </trkpt>
      <trkpt lat="44.86911" lon="5.66843">
        <ele>573.17</ele>
        <time>2019-08-08T08:08:43.000Z</time>
      </trkpt>
      <trkpt lat="44.86899" lon="5.66823">
        <ele>562.05</ele>
        <time>2019-08-08T08:09:17.000Z</time>
      </trkpt>
      <trkpt lat="44.86887" lon="5.66803">
        <ele>561.62</ele>
        <time>2019-08-08T08:09:36.000Z</time>
      </trkpt>
      <trkpt lat="44.8687" lon="5.66813">
        <ele>554.72</ele>
        <time>2019-08-08T08:09:49.000Z</time>
      </trkpt>
      <trkpt lat="44.86864" lon="5.66837">
        <ele>552.05</ele>
        <time>2019-08-08T08:10:07.000Z</time>
      </trkpt>
      <trkpt lat="44.86864" lon="5.66863">
        <ele>551.05</ele>
        <time>2019-08-08T08:10:25.000Z</time>
      </trkpt>
      <trkpt lat="44.86862" lon="5.66889">
        <ele>550.05</ele>
        <time>2019-08-08T08:10:42.000Z</time>
      </trkpt>
      <trkpt lat="44.86859" lon="5.66915">
        <ele>550.02</ele>
        <time>2019-08-08T08:10:56.000Z</time>
      </trkpt>
      <trkpt lat="44.86855" lon="5.66941">
        <ele>550.58</ele>
        <time>2019-08-08T08:11:12.000Z</time>
      </trkpt>
      <trkpt lat="44.86852" lon="5.66969">
        <ele>554.03</ele>
        <time>2019-08-08T08:11:25.000Z</time>
      </trkpt>
      <trkpt lat="44.86847" lon="5.66995">
        <ele>549.23</ele>
        <time>2019-08-08T08:11:42.000Z</time>
      </trkpt>
      <trkpt lat="44.86834" lon="5.67011">
        <ele>546.17</ele>
        <time>2019-08-08T08:12:01.000Z</time>
      </trkpt>
      <trkpt lat="44.86827" lon="5.67035">
        <ele>550.11</ele>
        <time>2019-08-08T08:12:36.000Z</time>
      </trkpt>
      <trkpt lat="44.86818" lon="5.67058">
        <ele>546.96</ele>
        <time>2019-08-08T08:14:55.000Z</time>
      </trkpt>
      <trkpt lat="44.86809" lon="5.6708">
        <ele>551.88</ele>
        <time>2019-08-08T08:15:35.000Z</time>
      </trkpt>
      <trkpt lat="44.86798" lon="5.67101">
        <ele>551.85</ele>
        <time>2019-08-08T08:15:50.000Z</time>
      </trkpt>
      <trkpt lat="44.86789" lon="5.67125">
        <ele>549.12</ele>
        <time>2019-08-08T08:16:50.000Z</time>
      </trkpt>
      <trkpt lat="44.86784" lon="5.67149">
        <ele>550.35</ele>
        <time>2019-08-08T08:17:16.000Z</time>
      </trkpt>
      <trkpt lat="44.86774" lon="5.67174">
        <ele>551.33</ele>
        <time>2019-08-08T08:17:43.000Z</time>
      </trkpt>
      <trkpt lat="44.86763" lon="5.67196">
        <ele>550.23</ele>
        <time>2019-08-08T08:18:03.000Z</time>
      </trkpt>
      <trkpt lat="44.86751" lon="5.67217">
        <ele>556.23</ele>
        <time>2019-08-08T08:18:16.000Z</time>
      </trkpt>
      <trkpt lat="44.86735" lon="5.67229">
        <ele>565.7</ele>
        <time>2019-08-08T08:18:36.000Z</time>
      </trkpt>
      <trkpt lat="44.86727" lon="5.67254">
        <ele>567.7</ele>
        <time>2019-08-08T08:18:50.000Z</time>
      </trkpt>
      <trkpt lat="44.86731" lon="5.6728">
        <ele>559.33</ele>
        <time>2019-08-08T08:20:59.000Z</time>
      </trkpt>
      <trkpt lat="44.86725" lon="5.67305">
        <ele>567.03</ele>
        <time>2019-08-08T08:21:18.000Z</time>
      </trkpt>
      <trkpt lat="44.86722" lon="5.67331">
        <ele>578.91</ele>
        <time>2019-08-08T08:21:41.000Z</time>
      </trkpt>
      <trkpt lat="44.86723" lon="5.67358">
        <ele>584.6</ele>
        <time>2019-08-08T08:21:53.000Z</time>
      </trkpt>
      <trkpt lat="44.86724" lon="5.67384">
        <ele>587.33</ele>
        <time>2019-08-08T08:22:07.000Z</time>
      </trkpt>
      <trkpt lat="44.8672" lon="5.67409">
        <ele>583.17</ele>
        <time>2019-08-08T08:22:17.000Z</time>
      </trkpt>
      <trkpt lat="44.86728" lon="5.67434">
        <ele>582.25</ele>
        <time>2019-08-08T08:22:28.000Z</time>
      </trkpt>
      <trkpt lat="44.86733" lon="5.6746">
        <ele>576.74</ele>
        <time>2019-08-08T08:22:40.000Z</time>
      </trkpt>
      <trkpt lat="44.8675" lon="5.67472">
        <ele>579.45</ele>
        <time>2019-08-08T08:23:08.000Z</time>
      </trkpt>
      <trkpt lat="44.86768" lon="5.67476">
        <ele>576.31</ele>
        <time>2019-08-08T08:23:33.000Z</time>
      </trkpt>
      <trkpt lat="44.86786" lon="5.67479">
        <ele>576.81</ele>
        <time>2019-08-08T08:23:53.000Z</time>
      </trkpt>
      <trkpt lat="44.86804" lon="5.67469">
        <ele>577.75</ele>
        <time>2019-08-08T08:24:11.000Z</time>
      </trkpt>
      <trkpt lat="44.86819" lon="5.67454">
        <ele>581.05</ele>
        <time>2019-08-08T08:24:21.000Z</time>
      </trkpt>
      <trkpt lat="44.86832" lon="5.67435">
        <ele>586.72</ele>
        <time>2019-08-08T08:24:36.000Z</time>
      </trkpt>
      <trkpt lat="44.86842" lon="5.67414">
        <ele>583.18</ele>
        <time>2019-08-08T08:24:50.000Z</time>
      </trkpt>
      <trkpt lat="44.86855" lon="5.67396">
        <ele>581.98</ele>
        <time>2019-08-08T08:25:06.000Z</time>
      </trkpt>
      <trkpt lat="44.86871" lon="5.67411">
        <ele>588.08</ele>
        <time>2019-08-08T08:25:30.000Z</time>
      </trkpt>
      <trkpt lat="44.86889" lon="5.67406">
        <ele>593.5</ele>
        <time>2019-08-08T08:25:51.000Z</time>
      </trkpt>
      <trkpt lat="44.86906" lon="5.67396">
        <ele>593.32</ele>
        <time>2019-08-08T08:26:03.000Z</time>
      </trkpt>
      <trkpt lat="44.86924" lon="5.67401">
        <ele>587.07</ele>
        <time>2019-08-08T08:26:17.000Z</time>
      </trkpt>
      <trkpt lat="44.86942" lon="5.67406">
        <ele>587.02</ele>
        <time>2019-08-08T08:26:32.000Z</time>
      </trkpt>
      <trkpt lat="44.8696" lon="5.67411">
        <ele>587.4</ele>
        <time>2019-08-08T08:26:43.000Z</time>
      </trkpt>
      <trkpt lat="44.86979" lon="5.67415">
        <ele>585.98</ele>
        <time>2019-08-08T08:27:03.000Z</time>
      </trkpt>
      <trkpt lat="44.86997" lon="5.67421">
        <ele>586.98</ele>
        <time>2019-08-08T08:27:17.000Z</time>
      </trkpt>
      <trkpt lat="44.87" lon="5.67447">
        <ele>587.75</ele>
        <time>2019-08-08T08:27:40.000Z</time>
      </trkpt>
      <trkpt lat="44.86992" lon="5.67471">
        <ele>594.66</ele>
        <time>2019-08-08T08:27:58.000Z</time>
      </trkpt>
      <trkpt lat="44.8698" lon="5.6749">
        <ele>598.01</ele>
        <time>2019-08-08T08:28:16.000Z</time>
      </trkpt>
      <trkpt lat="44.86965" lon="5.67504">
        <ele>600.36</ele>
        <time>2019-08-08T08:28:32.000Z</time>
      </trkpt>
      <trkpt lat="44.86954" lon="5.67527">
        <ele>599.49</ele>
        <time>2019-08-08T08:28:46.000Z</time>
      </trkpt>
      <trkpt lat="44.86953" lon="5.67554">
        <ele>603.37</ele>
        <time>2019-08-08T08:29:00.000Z</time>
      </trkpt>
      <trkpt lat="44.86949" lon="5.6758">
        <ele>602.03</ele>
        <time>2019-08-08T08:29:22.000Z</time>
      </trkpt>
      <trkpt lat="44.86948" lon="5.67605">
        <ele>608.84</ele>
        <time>2019-08-08T08:29:35.000Z</time>
      </trkpt>
      <trkpt lat="44.86939" lon="5.67628">
        <ele>603.82</ele>
        <time>2019-08-08T08:29:49.000Z</time>
      </trkpt>
      <trkpt lat="44.86926" lon="5.67648">
        <ele>610.12</ele>
        <time>2019-08-08T08:30:03.000Z</time>
      </trkpt>
      <trkpt lat="44.86916" lon="5.67669">
        <ele>607.01</ele>
        <time>2019-08-08T08:30:17.000Z</time>
      </trkpt>
      <trkpt lat="44.86907" lon="5.67691">
        <ele>605.48</ele>
        <time>2019-08-08T08:30:30.000Z</time>
      </trkpt>
      <trkpt lat="44.86892" lon="5.67707">
        <ele>606.29</ele>
        <time>2019-08-08T08:30:45.000Z</time>
      </trkpt>
      <trkpt lat="44.86885" lon="5.6773">
        <ele>606.58</ele>
        <time>2019-08-08T08:31:00.000Z</time>
      </trkpt>
      <trkpt lat="44.86878" lon="5.67756">
        <ele>612.63</ele>
        <time>2019-08-08T08:31:18.000Z</time>
      </trkpt>
      <trkpt lat="44.86867" lon="5.67779">
        <ele>609.44</ele>
        <time>2019-08-08T08:31:34.000Z</time>
      </trkpt>
      <trkpt lat="44.86857" lon="5.678">
        <ele>613.44</ele>
        <time>2019-08-08T08:31:49.000Z</time>
      </trkpt>
      <trkpt lat="44.86847" lon="5.67823">
        <ele>619.83</ele>
        <time>2019-08-08T08:32:05.000Z</time>
      </trkpt>
      <trkpt lat="44.86836" lon="5.67845">
        <ele>616.31</ele>
        <time>2019-08-08T08:34:51.000Z</time>
      </trkpt>
      <trkpt lat="44.86821" lon="5.67862">
        <ele>623.06</ele>
        <time>2019-08-08T08:35:04.000Z</time>
      </trkpt>
      <trkpt lat="44.86816" lon="5.67889">
        <ele>619.77</ele>
        <time>2019-08-08T08:35:21.000Z</time>
      </trkpt>
      <trkpt lat="44.86808" lon="5.67913">
        <ele>620.34</ele>
        <time>2019-08-08T08:35:36.000Z</time>
      </trkpt>
      <trkpt lat="44.86795" lon="5.67931">
        <ele>620.32</ele>
        <time>2019-08-08T08:35:52.000Z</time>
      </trkpt>
      <trkpt lat="44.86789" lon="5.67957">
        <ele>618</ele>
        <time>2019-08-08T08:36:05.000Z</time>
      </trkpt>
      <trkpt lat="44.86774" lon="5.67975">
        <ele>625.08</ele>
        <time>2019-08-08T08:36:24.000Z</time>
      </trkpt>
      <trkpt lat="44.86759" lon="5.67992">
        <ele>620.37</ele>
        <time>2019-08-08T08:36:35.000Z</time>
      </trkpt>
      <trkpt lat="44.86747" lon="5.68013">
        <ele>629.91</ele>
        <time>2019-08-08T08:36:51.000Z</time>
      </trkpt>
      <trkpt lat="44.86733" lon="5.68031">
        <ele>629.09</ele>
        <time>2019-08-08T08:37:04.000Z</time>
      </trkpt>
      <trkpt lat="44.86723" lon="5.68052">
        <ele>624.25</ele>
        <time>2019-08-08T08:37:17.000Z</time>
      </trkpt>
      <trkpt lat="44.86722" lon="5.68078">
        <ele>627.14</ele>
        <time>2019-08-08T08:37:32.000Z</time>
      </trkpt>
      <trkpt lat="44.86716" lon="5.68103">
        <ele>636.38</ele>
        <time>2019-08-08T08:37:59.000Z</time>
      </trkpt>
      <trkpt lat="44.86702" lon="5.68121">
        <ele>643.33</ele>
        <time>2019-08-08T08:38:25.000Z</time>
      </trkpt>
      <trkpt lat="44.8669" lon="5.68141">
        <ele>635.23</ele>
        <time>2019-08-08T08:38:42.000Z</time>
      </trkpt>
      <trkpt lat="44.86689" lon="5.68167">
        <ele>639.75</ele>
        <time>2019-08-08T08:39:51.000Z</time>
      </trkpt>
      <trkpt lat="44.86685" lon="5.68193">
        <ele>643.01</ele>
        <time>2019-08-08T08:40:11.000Z</time>
      </trkpt>
      <trkpt lat="44.86676" lon="5.68216">
        <ele>649.45</ele>
        <time>2019-08-08T08:40:30.000Z</time>
      </trkpt>
      <trkpt lat="44.86669" lon="5.68239">
        <ele>652.05</ele>
        <time>2019-08-08T08:40:44.000Z</time>
      </trkpt>
      <trkpt lat="44.86651" lon="5.68243">
        <ele>656.29</ele>
        <time>2019-08-08T08:41:26.000Z</time>
      </trkpt>
      <trkpt lat="44.86649" lon="5.6827">
        <ele>659.13</ele>
        <time>2019-08-08T08:41:40.000Z</time>
      </trkpt>
      <trkpt lat="44.86636" lon="5.6829">
        <ele>657.31</ele>
        <time>2019-08-08T08:41:56.000Z</time>
      </trkpt>
      <trkpt lat="44.86621" lon="5.68304">
        <ele>660.86</ele>
        <time>2019-08-08T08:42:14.000Z</time>
      </trkpt>
      <trkpt lat="44.86603" lon="5.6831">
        <ele>655.69</ele>
        <time>2019-08-08T08:42:24.000Z</time>
      </trkpt>
      <trkpt lat="44.86584" lon="5.68317">
        <ele>660.08</ele>
        <time>2019-08-08T08:42:42.000Z</time>
      </trkpt>
      <trkpt lat="44.86568" lon="5.68329">
        <ele>662.48</ele>
        <time>2019-08-08T08:42:51.000Z</time>
      </trkpt>
      <trkpt lat="44.86565" lon="5.68354">
        <ele>661.03</ele>
        <time>2019-08-08T08:43:05.000Z</time>
      </trkpt>
      <trkpt lat="44.86551" lon="5.6837">
        <ele>662.37</ele>
        <time>2019-08-08T08:43:21.000Z</time>
      </trkpt>
      <trkpt lat="44.86535" lon="5.68385">
        <ele>661.49</ele>
        <time>2019-08-08T08:43:42.000Z</time>
      </trkpt>
      <trkpt lat="44.8652" lon="5.68402">
        <ele>653.04</ele>
        <time>2019-08-08T08:44:26.000Z</time>
      </trkpt>
      <trkpt lat="44.86507" lon="5.68423">
        <ele>651.28</ele>
        <time>2019-08-08T08:44:40.000Z</time>
      </trkpt>
      <trkpt lat="44.86497" lon="5.68445">
        <ele>652.84</ele>
        <time>2019-08-08T08:45:04.000Z</time>
      </trkpt>
      <trkpt lat="44.86489" lon="5.68468">
        <ele>649.93</ele>
        <time>2019-08-08T08:45:49.000Z</time>
      </trkpt>
      <trkpt lat="44.86478" lon="5.6849">
        <ele>648.56</ele>
        <time>2019-08-08T08:46:04.000Z</time>
      </trkpt>
      <trkpt lat="44.86461" lon="5.68503">
        <ele>654</ele>
        <time>2019-08-08T08:46:17.000Z</time>
      </trkpt>
      <trkpt lat="44.86452" lon="5.68524">
        <ele>655.08</ele>
        <time>2019-08-08T08:46:33.000Z</time>
      </trkpt>
      <trkpt lat="44.8645" lon="5.6855">
        <ele>657.03</ele>
        <time>2019-08-08T08:46:51.000Z</time>
      </trkpt>
      <trkpt lat="44.86452" lon="5.68576">
        <ele>658.74</ele>
        <time>2019-08-08T08:47:09.000Z</time>
      </trkpt>
      <trkpt lat="44.8645" lon="5.68602">
        <ele>657.54</ele>
        <time>2019-08-08T08:47:28.000Z</time>
      </trkpt>
      <trkpt lat="44.8645" lon="5.68628">
        <ele>659.85</ele>
        <time>2019-08-08T08:47:39.000Z</time>
      </trkpt>
      <trkpt lat="44.86445" lon="5.68653">
        <ele>667.59</ele>
        <time>2019-08-08T08:48:06.000Z</time>
      </trkpt>
      <trkpt lat="44.86432" lon="5.68673">
        <ele>668.81</ele>
        <time>2019-08-08T08:48:24.000Z</time>
      </trkpt>
      <trkpt lat="44.86428" lon="5.68698">
        <ele>666.81</ele>
        <time>2019-08-08T08:48:40.000Z</time>
      </trkpt>
      <trkpt lat="44.86422" lon="5.68722">
        <ele>664.4</ele>
        <time>2019-08-08T08:48:58.000Z</time>
      </trkpt>
      <trkpt lat="44.8641" lon="5.68742">
        <ele>667.55</ele>
        <time>2019-08-08T08:49:13.000Z</time>
      </trkpt>
      <trkpt lat="44.86392" lon="5.6875">
        <ele>675.04</ele>
        <time>2019-08-08T08:49:32.000Z</time>
      </trkpt>
      <trkpt lat="44.8638" lon="5.68771">
        <ele>678.56</ele>
        <time>2019-08-08T08:49:51.000Z</time>
      </trkpt>
      <trkpt lat="44.86363" lon="5.68783">
        <ele>675.83</ele>
        <time>2019-08-08T08:50:08.000Z</time>
      </trkpt>
      <trkpt lat="44.86356" lon="5.68808">
        <ele>679.23</ele>
        <time>2019-08-08T08:50:27.000Z</time>
      </trkpt>
      <trkpt lat="44.86346" lon="5.6883">
        <ele>687.03</ele>
        <time>2019-08-08T08:50:42.000Z</time>
      </trkpt>
      <trkpt lat="44.86331" lon="5.68844">
        <ele>685.05</ele>
        <time>2019-08-08T08:51:03.000Z</time>
      </trkpt>
      <trkpt lat="44.86312" lon="5.68848">
        <ele>687</ele>
        <time>2019-08-08T08:51:16.000Z</time>
      </trkpt>
      <trkpt lat="44.86295" lon="5.68859">
        <ele>692.65</ele>
        <time>2019-08-08T08:51:31.000Z</time>
      </trkpt>
      <trkpt lat="44.86279" lon="5.68871">
        <ele>690.27</ele>
        <time>2019-08-08T08:51:47.000Z</time>
      </trkpt>
      <trkpt lat="44.86261" lon="5.68868">
        <ele>692.33</ele>
        <time>2019-08-08T08:52:09.000Z</time>
      </trkpt>
      <trkpt lat="44.86251" lon="5.6889">
        <ele>683</ele>
        <time>2019-08-08T08:52:34.000Z</time>
      </trkpt>
      <trkpt lat="44.86253" lon="5.68915">
        <ele>697.97</ele>
        <time>2019-08-08T08:53:11.000Z</time>
      </trkpt>
      <trkpt lat="44.86269" lon="5.68931">
        <ele>696.56</ele>
        <time>2019-08-08T08:53:56.000Z</time>
      </trkpt>
      <trkpt lat="44.86288" lon="5.68925">
        <ele>694.07</ele>
        <time>2019-08-08T08:54:10.000Z</time>
      </trkpt>
      <trkpt lat="44.86304" lon="5.68937">
        <ele>697.63</ele>
        <time>2019-08-08T08:54:58.000Z</time>
      </trkpt>
      <trkpt lat="44.8632" lon="5.6892">
        <ele>694.87</ele>
        <time>2019-08-08T08:55:15.000Z</time>
      </trkpt>
      <trkpt lat="44.86336" lon="5.68907">
        <ele>692.63</ele>
        <time>2019-08-08T08:55:29.000Z</time>
      </trkpt>
      <trkpt lat="44.86352" lon="5.68896">
        <ele>689.81</ele>
        <time>2019-08-08T08:55:45.000Z</time>
      </trkpt>
      <trkpt lat="44.8637" lon="5.68891">
        <ele>689.11</ele>
        <time>2019-08-08T08:55:59.000Z</time>
      </trkpt>
      <trkpt lat="44.86387" lon="5.68903">
        <ele>684.17</ele>
        <time>2019-08-08T08:56:25.000Z</time>
      </trkpt>
      <trkpt lat="44.864" lon="5.68922">
        <ele>678.27</ele>
        <time>2019-08-08T08:56:51.000Z</time>
      </trkpt>
      <trkpt lat="44.86412" lon="5.68941">
        <ele>671.74</ele>
        <time>2019-08-08T08:57:13.000Z</time>
      </trkpt>
      <trkpt lat="44.86427" lon="5.68957">
        <ele>670.03</ele>
        <time>2019-08-08T08:57:30.000Z</time>
      </trkpt>
      <trkpt lat="44.86441" lon="5.68975">
        <ele>665.79</ele>
        <time>2019-08-08T08:57:46.000Z</time>
      </trkpt>
      <trkpt lat="44.86453" lon="5.68995">
        <ele>660.88</ele>
        <time>2019-08-08T08:57:58.000Z</time>
      </trkpt>
      <trkpt lat="44.86468" lon="5.69012">
        <ele>657.66</ele>
        <time>2019-08-08T08:58:13.000Z</time>
      </trkpt>
      <trkpt lat="44.86486" lon="5.69022">
        <ele>656.74</ele>
        <time>2019-08-08T08:58:26.000Z</time>
      </trkpt>
      <trkpt lat="44.86503" lon="5.69034">
        <ele>660.44</ele>
        <time>2019-08-08T08:58:44.000Z</time>
      </trkpt>
      <trkpt lat="44.8652" lon="5.69045">
        <ele>656.18</ele>
        <time>2019-08-08T08:59:01.000Z</time>
      </trkpt>
      <trkpt lat="44.86534" lon="5.69061">
        <ele>650.05</ele>
        <time>2019-08-08T08:59:21.000Z</time>
      </trkpt>
      <trkpt lat="44.86526" lon="5.69084">
        <ele>648.55</ele>
        <time>2019-08-08T08:59:56.000Z</time>
      </trkpt>
      <trkpt lat="44.86516" lon="5.69108">
        <ele>646.04</ele>
        <time>2019-08-08T09:00:07.000Z</time>
      </trkpt>
      <trkpt lat="44.86503" lon="5.69128">
        <ele>653.44</ele>
        <time>2019-08-08T09:00:18.000Z</time>
      </trkpt>
      <trkpt lat="44.86493" lon="5.69151">
        <ele>660.63</ele>
        <time>2019-08-08T09:00:36.000Z</time>
      </trkpt>
      <trkpt lat="44.86474" lon="5.69158">
        <ele>658.17</ele>
        <time>2019-08-08T09:00:44.000Z</time>
      </trkpt>
      <trkpt lat="44.86456" lon="5.69169">
        <ele>653.37</ele>
        <time>2019-08-08T09:00:59.000Z</time>
      </trkpt>
      <trkpt lat="44.86443" lon="5.69186">
        <ele>655.93</ele>
        <time>2019-08-08T09:01:19.000Z</time>
      </trkpt>
      <trkpt lat="44.86429" lon="5.69203">
        <ele>656.64</ele>
        <time>2019-08-08T09:01:37.000Z</time>
      </trkpt>
      <trkpt lat="44.86413" lon="5.69217">
        <ele>664.45</ele>
        <time>2019-08-08T09:01:52.000Z</time>
      </trkpt>
      <trkpt lat="44.86395" lon="5.69226">
        <ele>661.85</ele>
        <time>2019-08-08T09:02:07.000Z</time>
      </trkpt>
      <trkpt lat="44.86384" lon="5.69247">
        <ele>659.58</ele>
        <time>2019-08-08T09:02:24.000Z</time>
      </trkpt>
      <trkpt lat="44.8637" lon="5.69264">
        <ele>665.75</ele>
        <time>2019-08-08T09:02:38.000Z</time>
      </trkpt>
      <trkpt lat="44.86357" lon="5.69283">
        <ele>665.93</ele>
        <time>2019-08-08T09:02:52.000Z</time>
      </trkpt>
      <trkpt lat="44.86349" lon="5.69306">
        <ele>667.05</ele>
        <time>2019-08-08T09:03:22.000Z</time>
      </trkpt>
      <trkpt lat="44.86343" lon="5.69331">
        <ele>670.45</ele>
        <time>2019-08-08T09:03:50.000Z</time>
      </trkpt>
      <trkpt lat="44.86341" lon="5.69358">
        <ele>671.44</ele>
        <time>2019-08-08T09:04:07.000Z</time>
      </trkpt>
      <trkpt lat="44.86346" lon="5.69384">
        <ele>668.25</ele>
        <time>2019-08-08T09:04:20.000Z</time>
      </trkpt>
      <trkpt lat="44.8636" lon="5.69403">
        <ele>665.62</ele>
        <time>2019-08-08T09:04:36.000Z</time>
      </trkpt>
      <trkpt lat="44.86369" lon="5.69426">
        <ele>659.85</ele>
        <time>2019-08-08T09:04:47.000Z</time>
      </trkpt>
      <trkpt lat="44.86366" lon="5.69451">
        <ele>663.06</ele>
        <time>2019-08-08T09:05:00.000Z</time>
      </trkpt>
      <trkpt lat="44.86352" lon="5.69468">
        <ele>658.45</ele>
        <time>2019-08-08T09:05:18.000Z</time>
      </trkpt>
      <trkpt lat="44.86337" lon="5.69483">
        <ele>659.99</ele>
        <time>2019-08-08T09:05:31.000Z</time>
      </trkpt>
      <trkpt lat="44.86324" lon="5.69502">
        <ele>672.01</ele>
        <time>2019-08-08T09:05:50.000Z</time>
      </trkpt>
      <trkpt lat="44.86312" lon="5.69523">
        <ele>670.71</ele>
        <time>2019-08-08T09:06:03.000Z</time>
      </trkpt>
      <trkpt lat="44.86296" lon="5.69536">
        <ele>668.96</ele>
        <time>2019-08-08T09:06:17.000Z</time>
      </trkpt>
      <trkpt lat="44.86293" lon="5.69562">
        <ele>675.05</ele>
        <time>2019-08-08T09:06:49.000Z</time>
      </trkpt>
      <trkpt lat="44.86287" lon="5.69586">
        <ele>670.27</ele>
        <time>2019-08-08T09:08:26.000Z</time>
      </trkpt>
      <trkpt lat="44.86277" lon="5.69608">
        <ele>666.69</ele>
        <time>2019-08-08T09:08:40.000Z</time>
      </trkpt>
      <trkpt lat="44.86275" lon="5.69636">
        <ele>659.33</ele>
        <time>2019-08-08T09:08:55.000Z</time>
      </trkpt>
      <trkpt lat="44.86272" lon="5.69662">
        <ele>661.42</ele>
        <time>2019-08-08T09:09:06.000Z</time>
      </trkpt>
      <trkpt lat="44.86269" lon="5.69688">
        <ele>659.88</ele>
        <time>2019-08-08T09:09:22.000Z</time>
      </trkpt>
      <trkpt lat="44.8627" lon="5.69714">
        <ele>657.35</ele>
        <time>2019-08-08T09:09:39.000Z</time>
      </trkpt>
      <trkpt lat="44.86274" lon="5.69739">
        <ele>656.79</ele>
        <time>2019-08-08T09:09:50.000Z</time>
      </trkpt>
      <trkpt lat="44.8628" lon="5.69765">
        <ele>651.19</ele>
        <time>2019-08-08T09:10:08.000Z</time>
      </trkpt>
      <trkpt lat="44.86284" lon="5.6979">
        <ele>654.99</ele>
        <time>2019-08-08T09:10:20.000Z</time>
      </trkpt>
      <trkpt lat="44.86293" lon="5.69812">
        <ele>652.05</ele>
        <time>2019-08-08T09:10:33.000Z</time>
      </trkpt>
      <trkpt lat="44.86298" lon="5.69838">
        <ele>649.08</ele>
        <time>2019-08-08T09:10:48.000Z</time>
      </trkpt>
      <trkpt lat="44.86307" lon="5.69862">
        <ele>648.06</ele>
        <time>2019-08-08T09:11:05.000Z</time>
      </trkpt>
      <trkpt lat="44.86315" lon="5.69887">
        <ele>648.75</ele>
        <time>2019-08-08T09:11:21.000Z</time>
      </trkpt>
      <trkpt lat="44.86325" lon="5.69909">
        <ele>649.76</ele>
        <time>2019-08-08T09:11:37.000Z</time>
      </trkpt>
      <trkpt lat="44.86342" lon="5.69922">
        <ele>652.74</ele>
        <time>2019-08-08T09:11:52.000Z</time>
      </trkpt>
      <trkpt lat="44.86361" lon="5.69917">
        <ele>652.75</ele>
        <time>2019-08-08T09:12:05.000Z</time>
      </trkpt>
      <trkpt lat="44.86378" lon="5.69908">
        <ele>649.62</ele>
        <time>2019-08-08T09:12:15.000Z</time>
      </trkpt>
      <trkpt lat="44.86383" lon="5.69934">
        <ele>645.05</ele>
        <time>2019-08-08T09:12:39.000Z</time>
      </trkpt>
      <trkpt lat="44.86379" lon="5.6996">
        <ele>644.15</ele>
        <time>2019-08-08T09:12:54.000Z</time>
      </trkpt>
      <trkpt lat="44.86368" lon="5.69981">
        <ele>646.13</ele>
        <time>2019-08-08T09:13:07.000Z</time>
      </trkpt>
      <trkpt lat="44.8636" lon="5.70005">
        <ele>644.95</ele>
        <time>2019-08-08T09:13:23.000Z</time>
      </trkpt>
      <trkpt lat="44.8635" lon="5.70025">
        <ele>638.81</ele>
        <time>2019-08-08T09:13:35.000Z</time>
      </trkpt>
      <trkpt lat="44.86339" lon="5.70048">
        <ele>643.43</ele>
        <time>2019-08-08T09:13:50.000Z</time>
      </trkpt>
      <trkpt lat="44.86324" lon="5.70063">
        <ele>644.25</ele>
        <time>2019-08-08T09:14:01.000Z</time>
      </trkpt>
      <trkpt lat="44.86318" lon="5.70088">
        <ele>645.68</ele>
        <time>2019-08-08T09:14:15.000Z</time>
      </trkpt>
      <trkpt lat="44.86317" lon="5.70114">
        <ele>643.05</ele>
        <time>2019-08-08T09:14:32.000Z</time>
      </trkpt>
      <trkpt lat="44.86327" lon="5.70137">
        <ele>648.62</ele>
        <time>2019-08-08T09:14:47.000Z</time>
      </trkpt>
      <trkpt lat="44.86333" lon="5.70161">
        <ele>643.27</ele>
        <time>2019-08-08T09:15:01.000Z</time>
      </trkpt>
      <trkpt lat="44.86338" lon="5.70187">
        <ele>652.12</ele>
        <time>2019-08-08T09:15:14.000Z</time>
      </trkpt>
      <trkpt lat="44.86336" lon="5.70212">
        <ele>656.08</ele>
        <time>2019-08-08T09:15:35.000Z</time>
      </trkpt>
      <trkpt lat="44.86352" lon="5.70226">
        <ele>661.03</ele>
        <time>2019-08-08T09:15:48.000Z</time>
      </trkpt>
      <trkpt lat="44.86369" lon="5.70237">
        <ele>666.37</ele>
        <time>2019-08-08T09:15:57.000Z</time>
      </trkpt>
      <trkpt lat="44.86388" lon="5.70242">
        <ele>657.93</ele>
        <time>2019-08-08T09:16:11.000Z</time>
      </trkpt>
      <trkpt lat="44.86402" lon="5.70259">
        <ele>660.69</ele>
        <time>2019-08-08T09:16:23.000Z</time>
      </trkpt>
      <trkpt lat="44.8639" lon="5.70279">
        <ele>659.14</ele>
        <time>2019-08-08T09:17:19.000Z</time>
      </trkpt>
      <trkpt lat="44.86375" lon="5.70293">
        <ele>659.35</ele>
        <time>2019-08-08T09:17:32.000Z</time>
      </trkpt>
      <trkpt lat="44.86363" lon="5.70313">
        <ele>659.99</ele>
        <time>2019-08-08T09:17:52.000Z</time>
      </trkpt>
      <trkpt lat="44.86374" lon="5.70335">
        <ele>654.55</ele>
        <time>2019-08-08T09:18:06.000Z</time>
      </trkpt>
      <trkpt lat="44.86384" lon="5.70357">
        <ele>649.89</ele>
        <time>2019-08-08T09:18:20.000Z</time>
      </trkpt>
      <trkpt lat="44.86393" lon="5.70381">
        <ele>648.96</ele>
        <time>2019-08-08T09:19:04.000Z</time>
      </trkpt>
      <trkpt lat="44.86407" lon="5.70398">
        <ele>652.75</ele>
        <time>2019-08-08T09:19:21.000Z</time>
      </trkpt>
      <trkpt lat="44.86392" lon="5.70413">
        <ele>648.56</ele>
        <time>2019-08-08T09:19:44.000Z</time>
      </trkpt>
      <trkpt lat="44.86383" lon="5.70436">
        <ele>644.84</ele>
        <time>2019-08-08T09:19:58.000Z</time>
      </trkpt>
      <trkpt lat="44.86373" lon="5.70458">
        <ele>648.05</ele>
        <time>2019-08-08T09:20:20.000Z</time>
      </trkpt>
      <trkpt lat="44.8637" lon="5.70484">
        <ele>643.32</ele>
        <time>2019-08-08T09:20:34.000Z</time>
      </trkpt>
      <trkpt lat="44.86373" lon="5.7051">
        <ele>640.83</ele>
        <time>2019-08-08T09:20:55.000Z</time>
      </trkpt>
      <trkpt lat="44.86388" lon="5.70526">
        <ele>639.16</ele>
        <time>2019-08-08T09:21:07.000Z</time>
      </trkpt>
      <trkpt lat="44.86401" lon="5.70547">
        <ele>634.81</ele>
        <time>2019-08-08T09:21:17.000Z</time>
      </trkpt>
      <trkpt lat="44.86414" lon="5.70566">
        <ele>633.34</ele>
        <time>2019-08-08T09:21:31.000Z</time>
      </trkpt>
      <trkpt lat="44.86424" lon="5.70588">
        <ele>628.34</ele>
        <time>2019-08-08T09:21:44.000Z</time>
      </trkpt>
      <trkpt lat="44.86433" lon="5.70611">
        <ele>626.11</ele>
        <time>2019-08-08T09:21:57.000Z</time>
      </trkpt>
      <trkpt lat="44.8644" lon="5.70635">
        <ele>627.53</ele>
        <time>2019-08-08T09:22:11.000Z</time>
      </trkpt>
      <trkpt lat="44.86446" lon="5.7066">
        <ele>619.13</ele>
        <time>2019-08-08T09:22:26.000Z</time>
      </trkpt>
      <trkpt lat="44.86456" lon="5.70681">
        <ele>618.82</ele>
        <time>2019-08-08T09:22:37.000Z</time>
      </trkpt>
      <trkpt lat="44.86464" lon="5.70705">
        <ele>622.05</ele>
        <time>2019-08-08T09:22:48.000Z</time>
      </trkpt>
      <trkpt lat="44.86477" lon="5.70722">
        <ele>628.2</ele>
        <time>2019-08-08T09:23:00.000Z</time>
      </trkpt>
      <trkpt lat="44.86496" lon="5.70719">
        <ele>632.9</ele>
        <time>2019-08-08T09:23:10.000Z</time>
      </trkpt>
      <trkpt lat="44.86514" lon="5.70708">
        <ele>636.02</ele>
        <time>2019-08-08T09:23:27.000Z</time>
      </trkpt>
      <trkpt lat="44.86533" lon="5.70702">
        <ele>639.63</ele>
        <time>2019-08-08T09:23:40.000Z</time>
      </trkpt>
      <trkpt lat="44.86542" lon="5.7068">
        <ele>634.5</ele>
        <time>2019-08-08T09:23:50.000Z</time>
      </trkpt>
      <trkpt lat="44.86544" lon="5.70654">
        <ele>632</ele>
        <time>2019-08-08T09:24:04.000Z</time>
      </trkpt>
      <trkpt lat="44.86556" lon="5.70635">
        <ele>625.82</ele>
        <time>2019-08-08T09:24:18.000Z</time>
      </trkpt>
      <trkpt lat="44.86564" lon="5.70611">
        <ele>622.52</ele>
        <time>2019-08-08T09:24:35.000Z</time>
      </trkpt>
      <trkpt lat="44.86574" lon="5.7059">
        <ele>610.92</ele>
        <time>2019-08-08T09:24:56.000Z</time>
      </trkpt>
      <trkpt lat="44.86591" lon="5.70578">
        <ele>605.93</ele>
        <time>2019-08-08T09:25:11.000Z</time>
      </trkpt>
      <trkpt lat="44.86604" lon="5.7056">
        <ele>601.15</ele>
        <time>2019-08-08T09:25:26.000Z</time>
      </trkpt>
      <trkpt lat="44.86619" lon="5.70544">
        <ele>592.97</ele>
        <time>2019-08-08T09:25:41.000Z</time>
      </trkpt>
      <trkpt lat="44.86636" lon="5.70536">
        <ele>590.05</ele>
        <time>2019-08-08T09:25:56.000Z</time>
      </trkpt>
      <trkpt lat="44.86654" lon="5.70535">
        <ele>592.02</ele>
        <time>2019-08-08T09:26:11.000Z</time>
      </trkpt>
      <trkpt lat="44.86667" lon="5.70554">
        <ele>580.93</ele>
        <time>2019-08-08T09:26:32.000Z</time>
      </trkpt>
      <trkpt lat="44.86664" lon="5.7058">
        <ele>584.48</ele>
        <time>2019-08-08T09:26:50.000Z</time>
      </trkpt>
      <trkpt lat="44.86675" lon="5.70603">
        <ele>585.26</ele>
        <time>2019-08-08T09:27:01.000Z</time>
      </trkpt>
      <trkpt lat="44.86681" lon="5.70628">
        <ele>577.78</ele>
        <time>2019-08-08T09:27:18.000Z</time>
      </trkpt>
      <trkpt lat="44.86685" lon="5.70653">
        <ele>569.92</ele>
        <time>2019-08-08T09:27:32.000Z</time>
      </trkpt>
      <trkpt lat="44.8669" lon="5.70678">
        <ele>571.68</ele>
        <time>2019-08-08T09:27:45.000Z</time>
      </trkpt>
      <trkpt lat="44.86702" lon="5.70699">
        <ele>568.64</ele>
        <time>2019-08-08T09:28:01.000Z</time>
      </trkpt>
      <trkpt lat="44.86711" lon="5.70676">
        <ele>568.28</ele>
        <time>2019-08-08T09:28:28.000Z</time>
      </trkpt>
      <trkpt lat="44.8672" lon="5.70652">
        <ele>569.99</ele>
        <time>2019-08-08T09:28:40.000Z</time>
      </trkpt>
      <trkpt lat="44.86718" lon="5.70626">
        <ele>567.76</ele>
        <time>2019-08-08T09:28:52.000Z</time>
      </trkpt>
      <trkpt lat="44.86723" lon="5.706">
        <ele>570.75</ele>
        <time>2019-08-08T09:29:08.000Z</time>
      </trkpt>
      <trkpt lat="44.86722" lon="5.70626">
        <ele>563.16</ele>
        <time>2019-08-08T09:29:35.000Z</time>
      </trkpt>
      <trkpt lat="44.86724" lon="5.70651">
        <ele>553.81</ele>
        <time>2019-08-08T09:29:48.000Z</time>
      </trkpt>
      <trkpt lat="44.86732" lon="5.70676">
        <ele>549.28</ele>
        <time>2019-08-08T09:30:11.000Z</time>
      </trkpt>
      <trkpt lat="44.8674" lon="5.70698">
        <ele>544.78</ele>
        <time>2019-08-08T09:30:34.000Z</time>
      </trkpt>
      <trkpt lat="44.86752" lon="5.70719">
        <ele>545.03</ele>
        <time>2019-08-08T09:30:56.000Z</time>
      </trkpt>
      <trkpt lat="44.86758" lon="5.70744">
        <ele>541.42</ele>
        <time>2019-08-08T09:31:13.000Z</time>
      </trkpt>
      <trkpt lat="44.86768" lon="5.70766">
        <ele>534.59</ele>
        <time>2019-08-08T09:31:34.000Z</time>
      </trkpt>
      <trkpt lat="44.86783" lon="5.70781">
        <ele>525.95</ele>
        <time>2019-08-08T09:31:53.000Z</time>
      </trkpt>
      <trkpt lat="44.86799" lon="5.70794">
        <ele>523.36</ele>
        <time>2019-08-08T09:32:17.000Z</time>
      </trkpt>
      <trkpt lat="44.86814" lon="5.70809">
        <ele>519.5</ele>
        <time>2019-08-08T09:32:45.000Z</time>
      </trkpt>
      <trkpt lat="44.8683" lon="5.70825">
        <ele>510.93</ele>
        <time>2019-08-08T09:33:01.000Z</time>
      </trkpt>
      <trkpt lat="44.86848" lon="5.70831">
        <ele>510.09</ele>
        <time>2019-08-08T09:33:27.000Z</time>
      </trkpt>
      <trkpt lat="44.86867" lon="5.7084">
        <ele>504.68</ele>
        <time>2019-08-08T09:33:40.000Z</time>
      </trkpt>
      <trkpt lat="44.86879" lon="5.70858">
        <ele>500.1</ele>
        <time>2019-08-08T09:33:49.000Z</time>
      </trkpt>
      <trkpt lat="44.86896" lon="5.70872">
        <ele>497.56</ele>
        <time>2019-08-08T09:34:04.000Z</time>
      </trkpt>
      <trkpt lat="44.86912" lon="5.70886">
        <ele>505.51</ele>
        <time>2019-08-08T09:34:19.000Z</time>
      </trkpt>
      <trkpt lat="44.86926" lon="5.70905">
        <ele>513.86</ele>
        <time>2019-08-08T09:34:35.000Z</time>
      </trkpt>
      <trkpt lat="44.86942" lon="5.70917">
        <ele>519.27</ele>
        <time>2019-08-08T09:34:46.000Z</time>
      </trkpt>
      <trkpt lat="44.86953" lon="5.70938">
        <ele>517.95</ele>
        <time>2019-08-08T09:35:14.000Z</time>
      </trkpt>
      <trkpt lat="44.86971" lon="5.70934">
        <ele>516.35</ele>
        <time>2019-08-08T09:35:25.000Z</time>
      </trkpt>
      <trkpt lat="44.86989" lon="5.70942">
        <ele>517.19</ele>
        <time>2019-08-08T09:35:44.000Z</time>
      </trkpt>
      <trkpt lat="44.87003" lon="5.70924">
        <ele>523.92</ele>
        <time>2019-08-08T09:35:59.000Z</time>
      </trkpt>
      <trkpt lat="44.87018" lon="5.70909">
        <ele>520.34</ele>
        <time>2019-08-08T09:36:11.000Z</time>
      </trkpt>
      <trkpt lat="44.87028" lon="5.70886">
        <ele>523.1</ele>
        <time>2019-08-08T09:36:28.000Z</time>
      </trkpt>
      <trkpt lat="44.87028" lon="5.70859">
        <ele>519.18</ele>
        <time>2019-08-08T09:36:40.000Z</time>
      </trkpt>
      <trkpt lat="44.87033" lon="5.70834">
        <ele>516.95</ele>
        <time>2019-08-08T09:36:55.000Z</time>
      </trkpt>
      <trkpt lat="44.8705" lon="5.7082">
        <ele>512.78</ele>
        <time>2019-08-08T09:37:25.000Z</time>
      </trkpt>
      <trkpt lat="44.87063" lon="5.7084">
        <ele>508.07</ele>
        <time>2019-08-08T09:37:42.000Z</time>
      </trkpt>
      <trkpt lat="44.87081" lon="5.70848">
        <ele>506.65</ele>
        <time>2019-08-08T09:37:57.000Z</time>
      </trkpt>
      <trkpt lat="44.871" lon="5.70845">
        <ele>513.02</ele>
        <time>2019-08-08T09:38:11.000Z</time>
      </trkpt>
      <trkpt lat="44.87106" lon="5.7082">
        <ele>513.28</ele>
        <time>2019-08-08T09:38:28.000Z</time>
      </trkpt>
      <trkpt lat="44.87118" lon="5.70799">
        <ele>511.26</ele>
        <time>2019-08-08T09:38:46.000Z</time>
      </trkpt>
      <trkpt lat="44.87134" lon="5.70787">
        <ele>507.12</ele>
        <time>2019-08-08T09:38:59.000Z</time>
      </trkpt>
      <trkpt lat="44.87153" lon="5.70792">
        <ele>501.28</ele>
        <time>2019-08-08T09:39:16.000Z</time>
      </trkpt>
      <trkpt lat="44.87165" lon="5.70771">
        <ele>507.08</ele>
        <time>2019-08-08T09:39:34.000Z</time>
      </trkpt>
      <trkpt lat="44.87165" lon="5.70744">
        <ele>517.74</ele>
        <time>2019-08-08T09:39:49.000Z</time>
      </trkpt>
      <trkpt lat="44.87154" lon="5.70723">
        <ele>519.45</ele>
        <time>2019-08-08T09:40:04.000Z</time>
      </trkpt>
      <trkpt lat="44.87137" lon="5.7071">
        <ele>517.36</ele>
        <time>2019-08-08T09:40:19.000Z</time>
      </trkpt>
      <trkpt lat="44.87141" lon="5.70684">
        <ele>511.39</ele>
        <time>2019-08-08T09:40:40.000Z</time>
      </trkpt>
      <trkpt lat="44.87151" lon="5.70663">
        <ele>514.86</ele>
        <time>2019-08-08T09:40:56.000Z</time>
      </trkpt>
      <trkpt lat="44.87163" lon="5.70643">
        <ele>511.08</ele>
        <time>2019-08-08T09:41:14.000Z</time>
      </trkpt>
      <trkpt lat="44.87178" lon="5.70626">
        <ele>507.56</ele>
        <time>2019-08-08T09:41:30.000Z</time>
      </trkpt>
      <trkpt lat="44.8719" lon="5.70607">
        <ele>507.54</ele>
        <time>2019-08-08T09:41:45.000Z</time>
      </trkpt>
      <trkpt lat="44.87201" lon="5.70585">
        <ele>516.19</ele>
        <time>2019-08-08T09:42:14.000Z</time>
      </trkpt>
      <trkpt lat="44.87211" lon="5.70564">
        <ele>516.76</ele>
        <time>2019-08-08T09:42:28.000Z</time>
      </trkpt>
      <trkpt lat="44.87218" lon="5.70539">
        <ele>516.02</ele>
        <time>2019-08-08T09:42:45.000Z</time>
      </trkpt>
      <trkpt lat="44.87227" lon="5.70515">
        <ele>517.5</ele>
        <time>2019-08-08T09:42:58.000Z</time>
      </trkpt>
      <trkpt lat="44.87218" lon="5.70491">
        <ele>514.26</ele>
        <time>2019-08-08T09:43:13.000Z</time>
      </trkpt>
      <trkpt lat="44.87217" lon="5.70466">
        <ele>516.93</ele>
        <time>2019-08-08T09:43:27.000Z</time>
      </trkpt>
      <trkpt lat="44.87227" lon="5.70443">
        <ele>514.51</ele>
        <time>2019-08-08T09:43:39.000Z</time>
      </trkpt>
      <trkpt lat="44.87245" lon="5.70433">
        <ele>515.4</ele>
        <time>2019-08-08T09:43:55.000Z</time>
      </trkpt>
      <trkpt lat="44.87259" lon="5.70414">
        <ele>517.78</ele>
        <time>2019-08-08T09:44:12.000Z</time>
      </trkpt>
      <trkpt lat="44.87278" lon="5.70411">
        <ele>521.78</ele>
        <time>2019-08-08T09:44:28.000Z</time>
      </trkpt>
      <trkpt lat="44.87296" lon="5.70413">
        <ele>524.17</ele>
        <time>2019-08-08T09:44:46.000Z</time>
      </trkpt>
      <trkpt lat="44.87313" lon="5.70404">
        <ele>525.84</ele>
        <time>2019-08-08T09:45:01.000Z</time>
      </trkpt>
      <trkpt lat="44.87301" lon="5.70385">
        <ele>526.26</ele>
        <time>2019-08-08T09:45:24.000Z</time>
      </trkpt>
      <trkpt lat="44.87291" lon="5.70362">
        <ele>532.11</ele>
        <time>2019-08-08T09:45:39.000Z</time>
      </trkpt>
      <trkpt lat="44.87288" lon="5.70337">
        <ele>533.05</ele>
        <time>2019-08-08T09:45:50.000Z</time>
      </trkpt>
      <trkpt lat="44.87276" lon="5.70315">
        <ele>535.75</ele>
        <time>2019-08-08T09:46:06.000Z</time>
      </trkpt>
      <trkpt lat="44.87264" lon="5.70295">
        <ele>531.78</ele>
        <time>2019-08-08T09:46:19.000Z</time>
      </trkpt>
      <trkpt lat="44.87252" lon="5.70275">
        <ele>539.44</ele>
        <time>2019-08-08T09:46:33.000Z</time>
      </trkpt>
      <trkpt lat="44.87244" lon="5.70251">
        <ele>539.14</ele>
        <time>2019-08-08T09:46:47.000Z</time>
      </trkpt>
      <trkpt lat="44.87242" lon="5.70226">
        <ele>549.81</ele>
        <time>2019-08-08T09:47:03.000Z</time>
      </trkpt>
      <trkpt lat="44.87243" lon="5.70199">
        <ele>545.16</ele>
        <time>2019-08-08T09:47:12.000Z</time>
      </trkpt>
      <trkpt lat="44.87244" lon="5.70174">
        <ele>543.44</ele>
        <time>2019-08-08T09:47:26.000Z</time>
      </trkpt>
      <trkpt lat="44.87236" lon="5.70151">
        <ele>540.05</ele>
        <time>2019-08-08T09:47:41.000Z</time>
      </trkpt>
      <trkpt lat="44.87228" lon="5.70127">
        <ele>540.48</ele>
        <time>2019-08-08T09:47:57.000Z</time>
      </trkpt>
      <trkpt lat="44.87217" lon="5.70106">
        <ele>544.33</ele>
        <time>2019-08-08T09:48:13.000Z</time>
      </trkpt>
      <trkpt lat="44.87208" lon="5.70084">
        <ele>547.64</ele>
        <time>2019-08-08T09:48:26.000Z</time>
      </trkpt>
      <trkpt lat="44.87202" lon="5.7006">
        <ele>540.93</ele>
        <time>2019-08-08T09:48:39.000Z</time>
      </trkpt>
      <trkpt lat="44.87217" lon="5.70045">
        <ele>543.03</ele>
        <time>2019-08-08T09:49:42.000Z</time>
      </trkpt>
      <trkpt lat="44.87235" lon="5.70043">
        <ele>541.84</ele>
        <time>2019-08-08T09:49:55.000Z</time>
      </trkpt>
      <trkpt lat="44.87253" lon="5.70041">
        <ele>542.99</ele>
        <time>2019-08-08T09:50:10.000Z</time>
      </trkpt>
      <trkpt lat="44.87272" lon="5.70037">
        <ele>548.93</ele>
        <time>2019-08-08T09:50:26.000Z</time>
      </trkpt>
      <trkpt lat="44.8729" lon="5.70034">
        <ele>547.01</ele>
        <time>2019-08-08T09:50:41.000Z</time>
      </trkpt>
      <trkpt lat="44.87308" lon="5.7004">
        <ele>546.6</ele>
        <time>2019-08-08T09:50:54.000Z</time>
      </trkpt>
      <trkpt lat="44.87326" lon="5.70034">
        <ele>547.73</ele>
        <time>2019-08-08T09:51:10.000Z</time>
      </trkpt>
      <trkpt lat="44.87345" lon="5.70036">
        <ele>547.96</ele>
        <time>2019-08-08T09:51:23.000Z</time>
      </trkpt>
      <trkpt lat="44.87331" lon="5.70052">
        <ele>554</ele>
        <time>2019-08-08T09:51:48.000Z</time>
      </trkpt>
      <trkpt lat="44.87312" lon="5.70055">
        <ele>556.24</ele>
        <time>2019-08-08T09:52:03.000Z</time>
      </trkpt>
      <trkpt lat="44.87294" lon="5.70054">
        <ele>562.95</ele>
        <time>2019-08-08T09:52:18.000Z</time>
      </trkpt>
    </trkseg>
  </trk>
</gpx>